<?xml version="1.0" encoding="UTF-8" standalone="no" ?>
<gpx xmlns="http://www.topografix.com/GPX/1/1" xmlns:xsi="http://www.w3.org/2001/XMLSchema-instance" xsi:schemaLocation="http://www.topografix.com/GPX/1/1 http://www.topografix.com/GPX/1/1/gpx.xsd" version="1.1" creator="VisuGPX - https://www.visugpx.com">
  <metadata>
    <name>Col de la république</name>
  </metadata>
  <trk>
    <name><![CDATA[Col de la république]]></name>
    <trkseg>
      <trkpt lat="45.43992" lon="4.38262">
        <ele>526.13714599609</ele>
        <time>2020-06-20T07:26:33.000Z</time>
      </trkpt>
      <trkpt lat="45.43894" lon="4.3829">
        <ele>531.20776367188</ele>
        <time>2020-06-20T07:26:33.016Z</time>
      </trkpt>
      <trkpt lat="45.43906" lon="4.38367">
        <ele>531.04577636719</ele>
        <time>2020-06-20T07:26:33.041Z</time>
      </trkpt>
      <trkpt lat="45.43916" lon="4.38442">
        <ele>529.09552001953</ele>
        <time>2020-06-20T07:26:33.075Z</time>
      </trkpt>
      <trkpt lat="45.43926" lon="4.3851">
        <ele>528.68505859375</ele>
        <time>2020-06-20T07:26:33.116Z</time>
      </trkpt>
      <trkpt lat="45.43937" lon="4.38586">
        <ele>528.68994140625</ele>
        <time>2020-06-20T07:26:33.166Z</time>
      </trkpt>
      <trkpt lat="45.43955" lon="4.38706">
        <ele>526.09936523438</ele>
        <time>2020-06-20T07:26:33.230Z</time>
      </trkpt>
      <trkpt lat="45.43837" lon="4.38738">
        <ele>526.16162109375</ele>
        <time>2020-06-20T07:26:33.313Z</time>
      </trkpt>
      <trkpt lat="45.43776" lon="4.38756">
        <ele>527.5869140625</ele>
        <time>2020-06-20T07:26:33.406Z</time>
      </trkpt>
      <trkpt lat="45.43776" lon="4.38756">
        <ele>527.58697509766</ele>
        <time>2020-06-20T07:26:33.499Z</time>
      </trkpt>
      <trkpt lat="45.43743" lon="4.38765">
        <ele>529.32446289062</ele>
        <time>2020-06-20T07:26:33.598Z</time>
      </trkpt>
      <trkpt lat="45.43716" lon="4.38772">
        <ele>530.7666015625</ele>
        <time>2020-06-20T07:26:33.701Z</time>
      </trkpt>
      <trkpt lat="45.43709" lon="4.38742">
        <ele>530.12487792969</ele>
        <time>2020-06-20T07:26:33.807Z</time>
      </trkpt>
      <trkpt lat="45.43702" lon="4.38745">
        <ele>530.29223632812</ele>
        <time>2020-06-20T07:26:33.915Z</time>
      </trkpt>
      <trkpt lat="45.4366" lon="4.38724">
        <ele>530.27935791016</ele>
        <time>2020-06-20T07:26:34.030Z</time>
      </trkpt>
      <trkpt lat="45.4363" lon="4.38746">
        <ele>528.21496582031</ele>
        <time>2020-06-20T07:26:34.150Z</time>
      </trkpt>
      <trkpt lat="45.43626" lon="4.38748">
        <ele>528.03454589844</ele>
        <time>2020-06-20T07:26:34.271Z</time>
      </trkpt>
      <trkpt lat="45.43588" lon="4.3876">
        <ele>526.98297119141</ele>
        <time>2020-06-20T07:26:34.398Z</time>
      </trkpt>
      <trkpt lat="45.43582" lon="4.3877">
        <ele>526.67388916016</ele>
        <time>2020-06-20T07:26:34.527Z</time>
      </trkpt>
      <trkpt lat="45.43535" lon="4.38754">
        <ele>528.12579345703</ele>
        <time>2020-06-20T07:26:34.663Z</time>
      </trkpt>
      <trkpt lat="45.43474" lon="4.38773">
        <ele>529.50695800781</ele>
        <time>2020-06-20T07:26:34.809Z</time>
      </trkpt>
      <trkpt lat="45.4347" lon="4.38774">
        <ele>529.55847167969</ele>
        <time>2020-06-20T07:26:34.956Z</time>
      </trkpt>
      <trkpt lat="45.43436" lon="4.38784">
        <ele>530.82147216797</ele>
        <time>2020-06-20T07:26:35.109Z</time>
      </trkpt>
      <trkpt lat="45.43436" lon="4.38784">
        <ele>530.82098388672</ele>
        <time>2020-06-20T07:26:35.262Z</time>
      </trkpt>
      <trkpt lat="45.43388" lon="4.38795">
        <ele>533.51513671875</ele>
        <time>2020-06-20T07:26:35.422Z</time>
      </trkpt>
      <trkpt lat="45.43354" lon="4.38802">
        <ele>536.20812988281</ele>
        <time>2020-06-20T07:26:35.588Z</time>
      </trkpt>
      <trkpt lat="45.43353" lon="4.38803">
        <ele>536.2861328125</ele>
        <time>2020-06-20T07:26:35.754Z</time>
      </trkpt>
      <trkpt lat="45.43321" lon="4.38812">
        <ele>538.78045654297</ele>
        <time>2020-06-20T07:26:35.925Z</time>
      </trkpt>
      <trkpt lat="45.43321" lon="4.38812">
        <ele>538.78002929688</ele>
        <time>2020-06-20T07:26:36.096Z</time>
      </trkpt>
      <trkpt lat="45.4327" lon="4.38825">
        <ele>540.19641113281</ele>
        <time>2020-06-20T07:26:36.275Z</time>
      </trkpt>
      <trkpt lat="45.4327" lon="4.38825">
        <ele>540.19604492188</ele>
        <time>2020-06-20T07:26:36.454Z</time>
      </trkpt>
      <trkpt lat="45.43195" lon="4.38847">
        <ele>536.98516845703</ele>
        <time>2020-06-20T07:26:36.646Z</time>
      </trkpt>
      <trkpt lat="45.4317" lon="4.38854">
        <ele>536.97229003906</ele>
        <time>2020-06-20T07:26:36.842Z</time>
      </trkpt>
      <trkpt lat="45.43143" lon="4.38862">
        <ele>536.9853515625</ele>
        <time>2020-06-20T07:26:37.042Z</time>
      </trkpt>
      <trkpt lat="45.4307" lon="4.38891">
        <ele>540.24340820312</ele>
        <time>2020-06-20T07:26:37.254Z</time>
      </trkpt>
      <trkpt lat="45.43051" lon="4.38906">
        <ele>539.98596191406</ele>
        <time>2020-06-20T07:26:37.470Z</time>
      </trkpt>
      <trkpt lat="45.43036" lon="4.38936">
        <ele>538.45233154297</ele>
        <time>2020-06-20T07:26:37.690Z</time>
      </trkpt>
      <trkpt lat="45.43034" lon="4.38971">
        <ele>538.17333984375</ele>
        <time>2020-06-20T07:26:37.914Z</time>
      </trkpt>
      <trkpt lat="45.42974" lon="4.38981">
        <ele>538.02758789062</ele>
        <time>2020-06-20T07:26:38.148Z</time>
      </trkpt>
      <trkpt lat="45.42974" lon="4.38981">
        <ele>538.02740478516</ele>
        <time>2020-06-20T07:26:38.382Z</time>
      </trkpt>
      <trkpt lat="45.42854" lon="4.39014">
        <ele>539.74829101562</ele>
        <time>2020-06-20T07:26:38.635Z</time>
      </trkpt>
      <trkpt lat="45.42854" lon="4.39014">
        <ele>539.74841308594</ele>
        <time>2020-06-20T07:26:38.888Z</time>
      </trkpt>
      <trkpt lat="45.42813" lon="4.39025">
        <ele>539.98004150391</ele>
        <time>2020-06-20T07:26:39.148Z</time>
      </trkpt>
      <trkpt lat="45.42813" lon="4.39025">
        <ele>539.98010253906</ele>
        <time>2020-06-20T07:26:39.408Z</time>
      </trkpt>
      <trkpt lat="45.42736" lon="4.39049">
        <ele>539.865234375</ele>
        <time>2020-06-20T07:26:39.681Z</time>
      </trkpt>
      <trkpt lat="45.42651" lon="4.39074">
        <ele>541.45611572266</ele>
        <time>2020-06-20T07:26:39.968Z</time>
      </trkpt>
      <trkpt lat="45.42646" lon="4.39075">
        <ele>541.41754150391</ele>
        <time>2020-06-20T07:26:40.255Z</time>
      </trkpt>
      <trkpt lat="45.42647" lon="4.3908">
        <ele>541.26306152344</ele>
        <time>2020-06-20T07:26:40.543Z</time>
      </trkpt>
      <trkpt lat="45.42644" lon="4.39081">
        <ele>541.22442626953</ele>
        <time>2020-06-20T07:26:40.831Z</time>
      </trkpt>
      <trkpt lat="45.42644" lon="4.39081">
        <ele>541.22442626953</ele>
        <time>2020-06-20T07:26:41.119Z</time>
      </trkpt>
      <trkpt lat="45.42607" lon="4.39092">
        <ele>540.88952636719</ele>
        <time>2020-06-20T07:26:41.413Z</time>
      </trkpt>
      <trkpt lat="45.42607" lon="4.39092">
        <ele>540.88977050781</ele>
        <time>2020-06-20T07:26:41.707Z</time>
      </trkpt>
      <trkpt lat="45.42591" lon="4.39096">
        <ele>541.46875</ele>
        <time>2020-06-20T07:26:42.004Z</time>
      </trkpt>
      <trkpt lat="45.42563" lon="4.39103">
        <ele>542.47283935547</ele>
        <time>2020-06-20T07:26:42.306Z</time>
      </trkpt>
      <trkpt lat="45.42563" lon="4.39103">
        <ele>542.47308349609</ele>
        <time>2020-06-20T07:26:42.608Z</time>
      </trkpt>
      <trkpt lat="45.42555" lon="4.39106">
        <ele>542.78173828125</ele>
        <time>2020-06-20T07:26:42.911Z</time>
      </trkpt>
      <trkpt lat="45.42546" lon="4.39108">
        <ele>543.06048583984</ele>
        <time>2020-06-20T07:26:43.215Z</time>
      </trkpt>
      <trkpt lat="45.42485" lon="4.39125">
        <ele>543.40509033203</ele>
        <time>2020-06-20T07:26:43.529Z</time>
      </trkpt>
      <trkpt lat="45.4243" lon="4.39141">
        <ele>546.21002197266</ele>
        <time>2020-06-20T07:26:43.852Z</time>
      </trkpt>
      <trkpt lat="45.42422" lon="4.39143">
        <ele>546.80212402344</ele>
        <time>2020-06-20T07:26:44.177Z</time>
      </trkpt>
      <trkpt lat="45.42413" lon="4.39145">
        <ele>547.39428710938</ele>
        <time>2020-06-20T07:26:44.503Z</time>
      </trkpt>
      <trkpt lat="45.42342" lon="4.39166">
        <ele>550.21862792969</ele>
        <time>2020-06-20T07:26:44.841Z</time>
      </trkpt>
      <trkpt lat="45.42342" lon="4.39166">
        <ele>550.21856689453</ele>
        <time>2020-06-20T07:26:45.179Z</time>
      </trkpt>
      <trkpt lat="45.42334" lon="4.39169">
        <ele>549.65216064453</ele>
        <time>2020-06-20T07:26:45.518Z</time>
      </trkpt>
      <trkpt lat="45.42325" lon="4.39171">
        <ele>549.24035644531</ele>
        <time>2020-06-20T07:26:45.858Z</time>
      </trkpt>
      <trkpt lat="45.42273" lon="4.39185">
        <ele>548.77777099609</ele>
        <time>2020-06-20T07:26:46.207Z</time>
      </trkpt>
      <trkpt lat="45.42273" lon="4.39185">
        <ele>548.77856445312</ele>
        <time>2020-06-20T07:26:46.556Z</time>
      </trkpt>
      <trkpt lat="45.4214" lon="4.39222">
        <ele>553.32684326172</ele>
        <time>2020-06-20T07:26:46.927Z</time>
      </trkpt>
      <trkpt lat="45.42042" lon="4.39249">
        <ele>553.54864501953</ele>
        <time>2020-06-20T07:26:47.314Z</time>
      </trkpt>
      <trkpt lat="45.41997" lon="4.39262">
        <ele>552.93078613281</ele>
        <time>2020-06-20T07:26:47.708Z</time>
      </trkpt>
      <trkpt lat="45.41877" lon="4.39298">
        <ele>556.31323242188</ele>
        <time>2020-06-20T07:26:48.122Z</time>
      </trkpt>
      <trkpt lat="45.41811" lon="4.39317">
        <ele>560.23931884766</ele>
        <time>2020-06-20T07:26:48.546Z</time>
      </trkpt>
      <trkpt lat="45.418" lon="4.3932">
        <ele>560.94732666016</ele>
        <time>2020-06-20T07:26:48.972Z</time>
      </trkpt>
      <trkpt lat="45.41798" lon="4.39314">
        <ele>561.00732421875</ele>
        <time>2020-06-20T07:26:49.399Z</time>
      </trkpt>
      <trkpt lat="45.41786" lon="4.39318">
        <ele>561.47039794922</ele>
        <time>2020-06-20T07:26:49.828Z</time>
      </trkpt>
      <trkpt lat="45.41786" lon="4.39318">
        <ele>561.470703125</ele>
        <time>2020-06-20T07:26:50.257Z</time>
      </trkpt>
      <trkpt lat="45.41738" lon="4.39332">
        <ele>562.84234619141</ele>
        <time>2020-06-20T07:26:50.694Z</time>
      </trkpt>
      <trkpt lat="45.41738" lon="4.39332">
        <ele>562.84259033203</ele>
        <time>2020-06-20T07:26:51.131Z</time>
      </trkpt>
      <trkpt lat="45.41727" lon="4.39335">
        <ele>563.08697509766</ele>
        <time>2020-06-20T07:26:51.570Z</time>
      </trkpt>
      <trkpt lat="45.41716" lon="4.39338">
        <ele>563.30578613281</ele>
        <time>2020-06-20T07:26:52.011Z</time>
      </trkpt>
      <trkpt lat="45.41716" lon="4.39338">
        <ele>563.30596923828</ele>
        <time>2020-06-20T07:26:52.452Z</time>
      </trkpt>
      <trkpt lat="45.41671" lon="4.39351">
        <ele>564.27416992188</ele>
        <time>2020-06-20T07:26:52.900Z</time>
      </trkpt>
      <trkpt lat="45.41645" lon="4.39348">
        <ele>565.12347412109</ele>
        <time>2020-06-20T07:26:53.352Z</time>
      </trkpt>
      <trkpt lat="45.41639" lon="4.39345">
        <ele>565.27795410156</ele>
        <time>2020-06-20T07:26:53.805Z</time>
      </trkpt>
      <trkpt lat="45.41579" lon="4.39319">
        <ele>568.38330078125</ele>
        <time>2020-06-20T07:26:54.268Z</time>
      </trkpt>
      <trkpt lat="45.41579" lon="4.39319">
        <ele>568.38348388672</ele>
        <time>2020-06-20T07:26:54.731Z</time>
      </trkpt>
      <trkpt lat="45.41575" lon="4.39317">
        <ele>568.51202392578</ele>
        <time>2020-06-20T07:26:55.195Z</time>
      </trkpt>
      <trkpt lat="45.41523" lon="4.39295">
        <ele>570.59893798828</ele>
        <time>2020-06-20T07:26:55.667Z</time>
      </trkpt>
      <trkpt lat="45.41518" lon="4.39293">
        <ele>570.80523681641</ele>
        <time>2020-06-20T07:26:56.140Z</time>
      </trkpt>
      <trkpt lat="45.41491" lon="4.39284">
        <ele>572.04095458984</ele>
        <time>2020-06-20T07:26:56.618Z</time>
      </trkpt>
      <trkpt lat="45.4144" lon="4.39268">
        <ele>574.95013427734</ele>
        <time>2020-06-20T07:26:57.104Z</time>
      </trkpt>
      <trkpt lat="45.41379" lon="4.39241">
        <ele>578.85028076172</ele>
        <time>2020-06-20T07:26:57.600Z</time>
      </trkpt>
      <trkpt lat="45.41343" lon="4.39222">
        <ele>579.7255859375</ele>
        <time>2020-06-20T07:26:58.102Z</time>
      </trkpt>
      <trkpt lat="45.41315" lon="4.39204">
        <ele>580.80688476562</ele>
        <time>2020-06-20T07:26:58.609Z</time>
      </trkpt>
      <trkpt lat="45.41315" lon="4.39204">
        <ele>580.806640625</ele>
        <time>2020-06-20T07:26:59.116Z</time>
      </trkpt>
      <trkpt lat="45.41291" lon="4.39177">
        <ele>581.36077880859</ele>
        <time>2020-06-20T07:26:59.628Z</time>
      </trkpt>
      <trkpt lat="45.41283" lon="4.39127">
        <ele>583.15002441406</ele>
        <time>2020-06-20T07:27:00.146Z</time>
      </trkpt>
      <trkpt lat="45.41282" lon="4.3908">
        <ele>585.39117431641</ele>
        <time>2020-06-20T07:27:00.669Z</time>
      </trkpt>
      <trkpt lat="45.41281" lon="4.39071">
        <ele>585.86853027344</ele>
        <time>2020-06-20T07:27:01.193Z</time>
      </trkpt>
      <trkpt lat="45.41274" lon="4.38985">
        <ele>590.54156494141</ele>
        <time>2020-06-20T07:27:01.727Z</time>
      </trkpt>
      <trkpt lat="45.41235" lon="4.38818">
        <ele>597.52801513672</ele>
        <time>2020-06-20T07:27:02.281Z</time>
      </trkpt>
      <trkpt lat="45.41201" lon="4.38731">
        <ele>599.21221923828</ele>
        <time>2020-06-20T07:27:02.846Z</time>
      </trkpt>
      <trkpt lat="45.41186" lon="4.38701">
        <ele>599.39245605469</ele>
        <time>2020-06-20T07:27:03.415Z</time>
      </trkpt>
      <trkpt lat="45.41186" lon="4.38701">
        <ele>599.39172363281</ele>
        <time>2020-06-20T07:27:03.984Z</time>
      </trkpt>
      <trkpt lat="45.41091" lon="4.38568">
        <ele>605.94067382812</ele>
        <time>2020-06-20T07:27:04.575Z</time>
      </trkpt>
      <trkpt lat="45.41075" lon="4.3854">
        <ele>606.98333740234</ele>
        <time>2020-06-20T07:27:05.170Z</time>
      </trkpt>
      <trkpt lat="45.40963" lon="4.38352">
        <ele>613.68072509766</ele>
        <time>2020-06-20T07:27:05.793Z</time>
      </trkpt>
      <trkpt lat="45.40919" lon="4.3827">
        <ele>616.77172851562</ele>
        <time>2020-06-20T07:27:06.427Z</time>
      </trkpt>
      <trkpt lat="45.40891" lon="4.3823">
        <ele>620.14501953125</ele>
        <time>2020-06-20T07:27:07.068Z</time>
      </trkpt>
      <trkpt lat="45.40887" lon="4.38225">
        <ele>620.55694580078</ele>
        <time>2020-06-20T07:27:07.709Z</time>
      </trkpt>
      <trkpt lat="45.40878" lon="4.38215">
        <ele>621.22631835938</ele>
        <time>2020-06-20T07:27:08.352Z</time>
      </trkpt>
      <trkpt lat="45.40863" lon="4.38197">
        <ele>622.51556396484</ele>
        <time>2020-06-20T07:27:08.998Z</time>
      </trkpt>
      <trkpt lat="45.40863" lon="4.38197">
        <ele>622.51483154297</ele>
        <time>2020-06-20T07:27:09.644Z</time>
      </trkpt>
      <trkpt lat="45.40825" lon="4.38151">
        <ele>623.23638916016</ele>
        <time>2020-06-20T07:27:10.298Z</time>
      </trkpt>
      <trkpt lat="45.40701" lon="4.37999">
        <ele>622.14520263672</ele>
        <time>2020-06-20T07:27:10.979Z</time>
      </trkpt>
      <trkpt lat="45.40698" lon="4.38003">
        <ele>621.95263671875</ele>
        <time>2020-06-20T07:27:11.660Z</time>
      </trkpt>
      <trkpt lat="45.40688" lon="4.38013">
        <ele>621.59155273438</ele>
        <time>2020-06-20T07:27:12.343Z</time>
      </trkpt>
      <trkpt lat="45.40626" lon="4.38133">
        <ele>619.64825439453</ele>
        <time>2020-06-20T07:27:13.043Z</time>
      </trkpt>
      <trkpt lat="45.4058" lon="4.38017">
        <ele>623.57562255859</ele>
        <time>2020-06-20T07:27:13.758Z</time>
      </trkpt>
      <trkpt lat="45.40558" lon="4.37981">
        <ele>624.69555664062</ele>
        <time>2020-06-20T07:27:14.478Z</time>
      </trkpt>
      <trkpt lat="45.40529" lon="4.3796">
        <ele>627.67510986328</ele>
        <time>2020-06-20T07:27:15.204Z</time>
      </trkpt>
      <trkpt lat="45.40511" lon="4.37948">
        <ele>629.93188476562</ele>
        <time>2020-06-20T07:27:15.933Z</time>
      </trkpt>
      <trkpt lat="45.40511" lon="4.37948">
        <ele>629.93298339844</ele>
        <time>2020-06-20T07:27:16.662Z</time>
      </trkpt>
      <trkpt lat="45.40422" lon="4.37829">
        <ele>632.03363037109</ele>
        <time>2020-06-20T07:27:17.410Z</time>
      </trkpt>
      <trkpt lat="45.40319" lon="4.37734">
        <ele>637.92730712891</ele>
        <time>2020-06-20T07:27:18.178Z</time>
      </trkpt>
      <trkpt lat="45.40279" lon="4.37675">
        <ele>640.26684570312</ele>
        <time>2020-06-20T07:27:18.955Z</time>
      </trkpt>
      <trkpt lat="45.40211" lon="4.37553">
        <ele>651.47436523438</ele>
        <time>2020-06-20T07:27:19.750Z</time>
      </trkpt>
      <trkpt lat="45.40172" lon="4.37543">
        <ele>656.22308349609</ele>
        <time>2020-06-20T07:27:20.551Z</time>
      </trkpt>
      <trkpt lat="45.40172" lon="4.37543">
        <ele>656.22430419922</ele>
        <time>2020-06-20T07:27:21.352Z</time>
      </trkpt>
      <trkpt lat="45.40095" lon="4.37561">
        <ele>661.22393798828</ele>
        <time>2020-06-20T07:27:22.166Z</time>
      </trkpt>
      <trkpt lat="45.40082" lon="4.37581">
        <ele>663.54675292969</ele>
        <time>2020-06-20T07:27:22.983Z</time>
      </trkpt>
      <trkpt lat="45.40084" lon="4.37606">
        <ele>668.41253662109</ele>
        <time>2020-06-20T07:27:23.802Z</time>
      </trkpt>
      <trkpt lat="45.40099" lon="4.3762">
        <ele>671.57409667969</ele>
        <time>2020-06-20T07:27:24.624Z</time>
      </trkpt>
      <trkpt lat="45.40129" lon="4.37618">
        <ele>673.26037597656</ele>
        <time>2020-06-20T07:27:25.451Z</time>
      </trkpt>
      <trkpt lat="45.40153" lon="4.37628">
        <ele>670.02801513672</ele>
        <time>2020-06-20T07:27:26.282Z</time>
      </trkpt>
      <trkpt lat="45.40153" lon="4.37628">
        <ele>670.02972412109</ele>
        <time>2020-06-20T07:27:27.113Z</time>
      </trkpt>
      <trkpt lat="45.4017" lon="4.3765">
        <ele>668.58801269531</ele>
        <time>2020-06-20T07:27:27.948Z</time>
      </trkpt>
      <trkpt lat="45.40245" lon="4.37857">
        <ele>677.89636230469</ele>
        <time>2020-06-20T07:27:28.809Z</time>
      </trkpt>
      <trkpt lat="45.40251" lon="4.37985">
        <ele>685.88208007812</ele>
        <time>2020-06-20T07:27:29.685Z</time>
      </trkpt>
      <trkpt lat="45.40272" lon="4.38164">
        <ele>689.19671630859</ele>
        <time>2020-06-20T07:27:30.581Z</time>
      </trkpt>
      <trkpt lat="45.40266" lon="4.38188">
        <ele>693.04296875</ele>
        <time>2020-06-20T07:27:31.480Z</time>
      </trkpt>
      <trkpt lat="45.40251" lon="4.38195">
        <ele>698.14050292969</ele>
        <time>2020-06-20T07:27:32.381Z</time>
      </trkpt>
      <trkpt lat="45.4023" lon="4.38191">
        <ele>703.93310546875</ele>
        <time>2020-06-20T07:27:33.286Z</time>
      </trkpt>
      <trkpt lat="45.40221" lon="4.38168">
        <ele>703.57263183594</ele>
        <time>2020-06-20T07:27:34.194Z</time>
      </trkpt>
      <trkpt lat="45.4022" lon="4.38069">
        <ele>696.84918212891</ele>
        <time>2020-06-20T07:27:35.113Z</time>
      </trkpt>
      <trkpt lat="45.40196" lon="4.38019">
        <ele>701.22204589844</ele>
        <time>2020-06-20T07:27:36.039Z</time>
      </trkpt>
      <trkpt lat="45.40171" lon="4.38008">
        <ele>706.75720214844</ele>
        <time>2020-06-20T07:27:36.969Z</time>
      </trkpt>
      <trkpt lat="45.40157" lon="4.38021">
        <ele>710.56549072266</ele>
        <time>2020-06-20T07:27:37.902Z</time>
      </trkpt>
      <trkpt lat="45.40157" lon="4.38021">
        <ele>710.56750488281</ele>
        <time>2020-06-20T07:27:38.835Z</time>
      </trkpt>
      <trkpt lat="45.40149" lon="4.38028">
        <ele>712.63995361328</ele>
        <time>2020-06-20T07:27:39.769Z</time>
      </trkpt>
      <trkpt lat="45.40136" lon="4.38197">
        <ele>722.33489990234</ele>
        <time>2020-06-20T07:27:40.722Z</time>
      </trkpt>
      <trkpt lat="45.40136" lon="4.38197">
        <ele>722.33630371094</ele>
        <time>2020-06-20T07:27:41.675Z</time>
      </trkpt>
      <trkpt lat="45.40134" lon="4.38234">
        <ele>723.35119628906</ele>
        <time>2020-06-20T07:27:42.632Z</time>
      </trkpt>
      <trkpt lat="45.40134" lon="4.38234">
        <ele>723.35284423828</ele>
        <time>2020-06-20T07:27:43.589Z</time>
      </trkpt>
      <trkpt lat="45.40134" lon="4.38289">
        <ele>724.56866455078</ele>
        <time>2020-06-20T07:27:44.553Z</time>
      </trkpt>
      <trkpt lat="45.40162" lon="4.38481">
        <ele>729.43170166016</ele>
        <time>2020-06-20T07:27:45.539Z</time>
      </trkpt>
      <trkpt lat="45.40144" lon="4.38791">
        <ele>750.84362792969</ele>
        <time>2020-06-20T07:27:46.560Z</time>
      </trkpt>
      <trkpt lat="45.40138" lon="4.38882">
        <ele>755.15393066406</ele>
        <time>2020-06-20T07:27:47.591Z</time>
      </trkpt>
      <trkpt lat="45.40089" lon="4.38953">
        <ele>766.92504882812</ele>
        <time>2020-06-20T07:27:48.633Z</time>
      </trkpt>
      <trkpt lat="45.40093" lon="4.38991">
        <ele>764.35052490234</ele>
        <time>2020-06-20T07:27:49.679Z</time>
      </trkpt>
      <trkpt lat="45.40161" lon="4.39323">
        <ele>774.33947753906</ele>
        <time>2020-06-20T07:27:50.765Z</time>
      </trkpt>
      <trkpt lat="45.40161" lon="4.39323">
        <ele>774.34112548828</ele>
        <time>2020-06-20T07:27:51.851Z</time>
      </trkpt>
      <trkpt lat="45.40164" lon="4.39361">
        <ele>777.32751464844</ele>
        <time>2020-06-20T07:27:52.941Z</time>
      </trkpt>
      <trkpt lat="45.40156" lon="4.39395">
        <ele>778.78302001953</ele>
        <time>2020-06-20T07:27:54.035Z</time>
      </trkpt>
      <trkpt lat="45.40138" lon="4.39426">
        <ele>782.72198486328</ele>
        <time>2020-06-20T07:27:55.133Z</time>
      </trkpt>
      <trkpt lat="45.40116" lon="4.39454">
        <ele>786.04162597656</ele>
        <time>2020-06-20T07:27:56.236Z</time>
      </trkpt>
      <trkpt lat="45.40029" lon="4.39527">
        <ele>793.57257080078</ele>
        <time>2020-06-20T07:27:57.355Z</time>
      </trkpt>
      <trkpt lat="45.4002" lon="4.39549">
        <ele>792.72760009766</ele>
        <time>2020-06-20T07:27:58.477Z</time>
      </trkpt>
      <trkpt lat="45.4002" lon="4.39549">
        <ele>792.72985839844</ele>
        <time>2020-06-20T07:27:59.599Z</time>
      </trkpt>
      <trkpt lat="45.40011" lon="4.39575">
        <ele>790.48779296875</ele>
        <time>2020-06-20T07:28:00.724Z</time>
      </trkpt>
      <trkpt lat="45.39998" lon="4.39641">
        <ele>790.55639648438</ele>
        <time>2020-06-20T07:28:01.857Z</time>
      </trkpt>
      <trkpt lat="45.39982" lon="4.39671">
        <ele>795.60241699219</ele>
        <time>2020-06-20T07:28:02.994Z</time>
      </trkpt>
      <trkpt lat="45.39893" lon="4.39727">
        <ele>810.88909912109</ele>
        <time>2020-06-20T07:28:04.147Z</time>
      </trkpt>
      <trkpt lat="45.39816" lon="4.39813">
        <ele>814.52270507812</ele>
        <time>2020-06-20T07:28:05.316Z</time>
      </trkpt>
      <trkpt lat="45.39786" lon="4.39848">
        <ele>817.36895751953</ele>
        <time>2020-06-20T07:28:06.491Z</time>
      </trkpt>
      <trkpt lat="45.39765" lon="4.39888">
        <ele>819.71362304688</ele>
        <time>2020-06-20T07:28:07.672Z</time>
      </trkpt>
      <trkpt lat="45.39765" lon="4.39888">
        <ele>819.71075439453</ele>
        <time>2020-06-20T07:28:08.853Z</time>
      </trkpt>
      <trkpt lat="45.39765" lon="4.39888">
        <ele>819.70971679688</ele>
        <time>2020-06-20T07:28:10.034Z</time>
      </trkpt>
      <trkpt lat="45.39717" lon="4.3998">
        <ele>828.43017578125</ele>
        <time>2020-06-20T07:28:11.227Z</time>
      </trkpt>
      <trkpt lat="45.397" lon="4.40031">
        <ele>830.52777099609</ele>
        <time>2020-06-20T07:28:12.427Z</time>
      </trkpt>
      <trkpt lat="45.39684" lon="4.40083">
        <ele>832.89227294922</ele>
        <time>2020-06-20T07:28:13.633Z</time>
      </trkpt>
      <trkpt lat="45.39605" lon="4.40235">
        <ele>849.29113769531</ele>
        <time>2020-06-20T07:28:14.860Z</time>
      </trkpt>
      <trkpt lat="45.39592" lon="4.40276">
        <ele>850.71270751953</ele>
        <time>2020-06-20T07:28:16.093Z</time>
      </trkpt>
      <trkpt lat="45.39582" lon="4.40356">
        <ele>847.421875</ele>
        <time>2020-06-20T07:28:17.335Z</time>
      </trkpt>
      <trkpt lat="45.39567" lon="4.40372">
        <ele>851.15301513672</ele>
        <time>2020-06-20T07:28:18.580Z</time>
      </trkpt>
      <trkpt lat="45.39551" lon="4.4037">
        <ele>857.52130126953</ele>
        <time>2020-06-20T07:28:19.827Z</time>
      </trkpt>
      <trkpt lat="45.39543" lon="4.40352">
        <ele>860.25415039062</ele>
        <time>2020-06-20T07:28:21.077Z</time>
      </trkpt>
      <trkpt lat="45.39555" lon="4.40259">
        <ele>862.70983886719</ele>
        <time>2020-06-20T07:28:22.337Z</time>
      </trkpt>
      <trkpt lat="45.39541" lon="4.40163">
        <ele>867</ele>
        <time>2020-06-20T07:28:23.608Z</time>
      </trkpt>
      <trkpt lat="45.39526" lon="4.4013">
        <ele>867</ele>
        <time>2020-06-20T07:28:24.884Z</time>
      </trkpt>
      <trkpt lat="45.39508" lon="4.40112">
        <ele>866.88684082031</ele>
        <time>2020-06-20T07:28:26.163Z</time>
      </trkpt>
      <trkpt lat="45.39497" lon="4.40122">
        <ele>867</ele>
        <time>2020-06-20T07:28:27.444Z</time>
      </trkpt>
      <trkpt lat="45.39455" lon="4.40198">
        <ele>870.81286621094</ele>
        <time>2020-06-20T07:28:28.736Z</time>
      </trkpt>
      <trkpt lat="45.39395" lon="4.40358">
        <ele>881.0810546875</ele>
        <time>2020-06-20T07:28:30.049Z</time>
      </trkpt>
      <trkpt lat="45.39371" lon="4.40382">
        <ele>883.87017822266</ele>
        <time>2020-06-20T07:28:31.367Z</time>
      </trkpt>
      <trkpt lat="45.39291" lon="4.40676">
        <ele>899.80786132812</ele>
        <time>2020-06-20T07:28:32.720Z</time>
      </trkpt>
      <trkpt lat="45.3928" lon="4.4074">
        <ele>903.04113769531</ele>
        <time>2020-06-20T07:28:34.080Z</time>
      </trkpt>
      <trkpt lat="45.39181" lon="4.4102">
        <ele>915.91223144531</ele>
        <time>2020-06-20T07:28:35.476Z</time>
      </trkpt>
      <trkpt lat="45.39184" lon="4.41128">
        <ele>916.67944335938</ele>
        <time>2020-06-20T07:28:36.884Z</time>
      </trkpt>
      <trkpt lat="45.39178" lon="4.41186">
        <ele>914.27227783203</ele>
        <time>2020-06-20T07:28:38.299Z</time>
      </trkpt>
      <trkpt lat="45.39201" lon="4.4123">
        <ele>913.28979492188</ele>
        <time>2020-06-20T07:28:39.720Z</time>
      </trkpt>
      <trkpt lat="45.39224" lon="4.41351">
        <ele>906.85009765625</ele>
        <time>2020-06-20T07:28:41.155Z</time>
      </trkpt>
      <trkpt lat="45.39221" lon="4.41413">
        <ele>903.95855712891</ele>
        <time>2020-06-20T07:28:42.597Z</time>
      </trkpt>
      <trkpt lat="45.39188" lon="4.41546">
        <ele>902.46948242188</ele>
        <time>2020-06-20T07:28:44.055Z</time>
      </trkpt>
      <trkpt lat="45.39168" lon="4.4167">
        <ele>903.96514892578</ele>
        <time>2020-06-20T07:28:45.527Z</time>
      </trkpt>
      <trkpt lat="45.3916" lon="4.41757">
        <ele>907.59497070312</ele>
        <time>2020-06-20T07:28:47.009Z</time>
      </trkpt>
      <trkpt lat="45.39146" lon="4.41797">
        <ele>909.21508789062</ele>
        <time>2020-06-20T07:28:48.496Z</time>
      </trkpt>
      <trkpt lat="45.39093" lon="4.41844">
        <ele>913.48852539062</ele>
        <time>2020-06-20T07:28:49.993Z</time>
      </trkpt>
      <trkpt lat="45.39053" lon="4.41918">
        <ele>917.61090087891</ele>
        <time>2020-06-20T07:28:51.501Z</time>
      </trkpt>
      <trkpt lat="45.39053" lon="4.41918">
        <ele>917.61419677734</ele>
        <time>2020-06-20T07:28:53.009Z</time>
      </trkpt>
      <trkpt lat="45.39009" lon="4.42037">
        <ele>916.50183105469</ele>
        <time>2020-06-20T07:28:54.532Z</time>
      </trkpt>
      <trkpt lat="45.38963" lon="4.422">
        <ele>930.08477783203</ele>
        <time>2020-06-20T07:28:56.075Z</time>
      </trkpt>
      <trkpt lat="45.38963" lon="4.422">
        <ele>930.08508300781</ele>
        <time>2020-06-20T07:28:57.618Z</time>
      </trkpt>
      <trkpt lat="45.38907" lon="4.42404">
        <ele>939.77917480469</ele>
        <time>2020-06-20T07:28:59.185Z</time>
      </trkpt>
      <trkpt lat="45.38902" lon="4.42456">
        <ele>942.01507568359</ele>
        <time>2020-06-20T07:29:00.758Z</time>
      </trkpt>
      <trkpt lat="45.38902" lon="4.42456">
        <ele>942.0166015625</ele>
        <time>2020-06-20T07:29:02.331Z</time>
      </trkpt>
      <trkpt lat="45.38919" lon="4.42584">
        <ele>941.11334228516</ele>
        <time>2020-06-20T07:29:03.919Z</time>
      </trkpt>
      <trkpt lat="45.38921" lon="4.42664">
        <ele>941.92791748047</ele>
        <time>2020-06-20T07:29:05.516Z</time>
      </trkpt>
      <trkpt lat="45.38915" lon="4.42717">
        <ele>941.39392089844</ele>
        <time>2020-06-20T07:29:07.119Z</time>
      </trkpt>
      <trkpt lat="45.38851" lon="4.42832">
        <ele>947.91247558594</ele>
        <time>2020-06-20T07:29:08.738Z</time>
      </trkpt>
      <trkpt lat="45.38848" lon="4.4285">
        <ele>946.94256591797</ele>
        <time>2020-06-20T07:29:10.360Z</time>
      </trkpt>
      <trkpt lat="45.38846" lon="4.43037">
        <ele>933.16595458984</ele>
        <time>2020-06-20T07:29:12.003Z</time>
      </trkpt>
      <trkpt lat="45.38832" lon="4.43112">
        <ele>936.22412109375</ele>
        <time>2020-06-20T07:29:13.654Z</time>
      </trkpt>
      <trkpt lat="45.38837" lon="4.43197">
        <ele>936.54748535156</ele>
        <time>2020-06-20T07:29:15.315Z</time>
      </trkpt>
      <trkpt lat="45.38834" lon="4.4325">
        <ele>938.71875</ele>
        <time>2020-06-20T07:29:16.982Z</time>
      </trkpt>
      <trkpt lat="45.38809" lon="4.43295">
        <ele>942.73754882812</ele>
        <time>2020-06-20T07:29:18.656Z</time>
      </trkpt>
      <trkpt lat="45.38789" lon="4.43306">
        <ele>944.169921875</ele>
        <time>2020-06-20T07:29:20.333Z</time>
      </trkpt>
      <trkpt lat="45.38768" lon="4.43303">
        <ele>945.50866699219</ele>
        <time>2020-06-20T07:29:22.013Z</time>
      </trkpt>
      <trkpt lat="45.38705" lon="4.43245">
        <ele>954.73358154297</ele>
        <time>2020-06-20T07:29:23.705Z</time>
      </trkpt>
      <trkpt lat="45.38687" lon="4.43245">
        <ele>956.04656982422</ele>
        <time>2020-06-20T07:29:25.400Z</time>
      </trkpt>
      <trkpt lat="45.38674" lon="4.43264">
        <ele>953.81365966797</ele>
        <time>2020-06-20T07:29:27.098Z</time>
      </trkpt>
      <trkpt lat="45.38675" lon="4.43314">
        <ele>945.9228515625</ele>
        <time>2020-06-20T07:29:28.802Z</time>
      </trkpt>
      <trkpt lat="45.38667" lon="4.4339">
        <ele>937.01843261719</ele>
        <time>2020-06-20T07:29:30.515Z</time>
      </trkpt>
      <trkpt lat="45.38646" lon="4.4345">
        <ele>933.23870849609</ele>
        <time>2020-06-20T07:29:32.235Z</time>
      </trkpt>
      <trkpt lat="45.38604" lon="4.43488">
        <ele>936.42352294922</ele>
        <time>2020-06-20T07:29:33.963Z</time>
      </trkpt>
      <trkpt lat="45.38427" lon="4.43541">
        <ele>942.87719726562</ele>
        <time>2020-06-20T07:29:35.720Z</time>
      </trkpt>
      <trkpt lat="45.3837" lon="4.43518">
        <ele>951.88098144531</ele>
        <time>2020-06-20T07:29:37.487Z</time>
      </trkpt>
      <trkpt lat="45.3835" lon="4.43527">
        <ele>951.03680419922</ele>
        <time>2020-06-20T07:29:39.257Z</time>
      </trkpt>
      <trkpt lat="45.38342" lon="4.4359">
        <ele>933.87335205078</ele>
        <time>2020-06-20T07:29:41.034Z</time>
      </trkpt>
      <trkpt lat="45.38329" lon="4.43618">
        <ele>930.19891357422</ele>
        <time>2020-06-20T07:29:42.815Z</time>
      </trkpt>
      <trkpt lat="45.38242" lon="4.43687">
        <ele>929.84240722656</ele>
        <time>2020-06-20T07:29:44.612Z</time>
      </trkpt>
      <trkpt lat="45.38098" lon="4.43775">
        <ele>918.56573486328</ele>
        <time>2020-06-20T07:29:46.434Z</time>
      </trkpt>
      <trkpt lat="45.38092" lon="4.43795">
        <ele>917.73718261719</ele>
        <time>2020-06-20T07:29:48.258Z</time>
      </trkpt>
      <trkpt lat="45.38099" lon="4.43809">
        <ele>917.80157470703</ele>
        <time>2020-06-20T07:29:50.084Z</time>
      </trkpt>
      <trkpt lat="45.38199" lon="4.43851">
        <ele>916.02465820312</ele>
        <time>2020-06-20T07:29:51.927Z</time>
      </trkpt>
      <trkpt lat="45.38245" lon="4.43863">
        <ele>917.67755126953</ele>
        <time>2020-06-20T07:29:53.778Z</time>
      </trkpt>
      <trkpt lat="45.38293" lon="4.43838">
        <ele>915.81567382812</ele>
        <time>2020-06-20T07:29:55.637Z</time>
      </trkpt>
      <trkpt lat="45.38307" lon="4.43848">
        <ele>917.77392578125</ele>
        <time>2020-06-20T07:29:57.498Z</time>
      </trkpt>
      <trkpt lat="45.38283" lon="4.43868">
        <ele>920.47576904297</ele>
        <time>2020-06-20T07:29:59.364Z</time>
      </trkpt>
      <trkpt lat="45.38256" lon="4.43888">
        <ele>922.29083251953</ele>
        <time>2020-06-20T07:30:01.235Z</time>
      </trkpt>
      <trkpt lat="45.38125" lon="4.43882">
        <ele>922.78070068359</ele>
        <time>2020-06-20T07:30:03.127Z</time>
      </trkpt>
      <trkpt lat="45.38074" lon="4.43887">
        <ele>927.82666015625</ele>
        <time>2020-06-20T07:30:05.027Z</time>
      </trkpt>
      <trkpt lat="45.38054" lon="4.43894">
        <ele>929.93304443359</ele>
        <time>2020-06-20T07:30:06.930Z</time>
      </trkpt>
      <trkpt lat="45.37996" lon="4.43922">
        <ele>935.87371826172</ele>
        <time>2020-06-20T07:30:08.843Z</time>
      </trkpt>
      <trkpt lat="45.37937" lon="4.43999">
        <ele>951.10687255859</ele>
        <time>2020-06-20T07:30:10.769Z</time>
      </trkpt>
      <trkpt lat="45.37899" lon="4.44048">
        <ele>953.27221679688</ele>
        <time>2020-06-20T07:30:12.703Z</time>
      </trkpt>
      <trkpt lat="45.37834" lon="4.44111">
        <ele>959.28509521484</ele>
        <time>2020-06-20T07:30:14.649Z</time>
      </trkpt>
      <trkpt lat="45.37775" lon="4.44156">
        <ele>966.12463378906</ele>
        <time>2020-06-20T07:30:16.606Z</time>
      </trkpt>
      <trkpt lat="45.3765" lon="4.44231">
        <ele>973.17584228516</ele>
        <time>2020-06-20T07:30:18.585Z</time>
      </trkpt>
      <trkpt lat="45.37646" lon="4.44234">
        <ele>973.21447753906</ele>
        <time>2020-06-20T07:30:20.565Z</time>
      </trkpt>
      <trkpt lat="45.37628" lon="4.44246">
        <ele>973.34020996094</ele>
        <time>2020-06-20T07:30:22.548Z</time>
      </trkpt>
      <trkpt lat="45.37577" lon="4.44296">
        <ele>976.52899169922</ele>
        <time>2020-06-20T07:30:24.541Z</time>
      </trkpt>
      <trkpt lat="45.37543" lon="4.44414">
        <ele>987.89788818359</ele>
        <time>2020-06-20T07:30:26.548Z</time>
      </trkpt>
      <trkpt lat="45.3751" lon="4.44466">
        <ele>986.82336425781</ele>
        <time>2020-06-20T07:30:28.563Z</time>
      </trkpt>
      <trkpt lat="45.37498" lon="4.44479">
        <ele>985.81750488281</ele>
        <time>2020-06-20T07:30:30.580Z</time>
      </trkpt>
      <trkpt lat="45.37388" lon="4.44565">
        <ele>987.98559570312</ele>
        <time>2020-06-20T07:30:32.618Z</time>
      </trkpt>
      <trkpt lat="45.37307" lon="4.44653">
        <ele>992.74682617188</ele>
        <time>2020-06-20T07:30:34.672Z</time>
      </trkpt>
      <trkpt lat="45.37259" lon="4.44691">
        <ele>994.08776855469</ele>
        <time>2020-06-20T07:30:36.735Z</time>
      </trkpt>
      <trkpt lat="45.37166" lon="4.44736">
        <ele>999.46752929688</ele>
        <time>2020-06-20T07:30:38.814Z</time>
      </trkpt>
      <trkpt lat="45.37166" lon="4.44736">
        <ele>999.46728515625</ele>
        <time>2020-06-20T07:30:40.893Z</time>
      </trkpt>
      <trkpt lat="45.37068" lon="4.44825">
        <ele>1006.611328125</ele>
        <time>2020-06-20T07:30:42.990Z</time>
      </trkpt>
      <trkpt lat="45.36893" lon="4.45033">
        <ele>1021.6777954102</ele>
        <time>2020-06-20T07:30:45.124Z</time>
      </trkpt>
      <trkpt lat="45.36872" lon="4.45088">
        <ele>1026.6444091797</ele>
        <time>2020-06-20T07:30:47.265Z</time>
      </trkpt>
      <trkpt lat="45.36854" lon="4.45205">
        <ele>1031.4958496094</ele>
        <time>2020-06-20T07:30:49.419Z</time>
      </trkpt>
      <trkpt lat="45.36842" lon="4.45241">
        <ele>1032.8603515625</ele>
        <time>2020-06-20T07:30:51.578Z</time>
      </trkpt>
      <trkpt lat="45.36788" lon="4.45313">
        <ele>1030.8444824219</ele>
        <time>2020-06-20T07:30:53.749Z</time>
      </trkpt>
      <trkpt lat="45.36748" lon="4.45336">
        <ele>1030.4475097656</ele>
        <time>2020-06-20T07:30:55.926Z</time>
      </trkpt>
      <trkpt lat="45.36692" lon="4.45353">
        <ele>1029.1557617188</ele>
        <time>2020-06-20T07:30:58.113Z</time>
      </trkpt>
      <trkpt lat="45.36567" lon="4.45341">
        <ele>1032.0740966797</ele>
        <time>2020-06-20T07:31:00.320Z</time>
      </trkpt>
      <trkpt lat="45.3639" lon="4.4533">
        <ele>1036.6500244141</ele>
        <time>2020-06-20T07:31:02.555Z</time>
      </trkpt>
      <trkpt lat="45.36343" lon="4.45354">
        <ele>1040.8953857422</ele>
        <time>2020-06-20T07:31:04.798Z</time>
      </trkpt>
      <trkpt lat="45.36343" lon="4.45354">
        <ele>1040.8959960938</ele>
        <time>2020-06-20T07:31:07.041Z</time>
      </trkpt>
      <trkpt lat="45.3631" lon="4.45389">
        <ele>1044.0054931641</ele>
        <time>2020-06-20T07:31:09.291Z</time>
      </trkpt>
      <trkpt lat="45.36228" lon="4.45515">
        <ele>1045.4647216797</ele>
        <time>2020-06-20T07:31:11.560Z</time>
      </trkpt>
      <trkpt lat="45.36115" lon="4.4569">
        <ele>1048.6983642578</ele>
        <time>2020-06-20T07:31:13.856Z</time>
      </trkpt>
      <trkpt lat="45.36066" lon="4.4575">
        <ele>1050.9217529297</ele>
        <time>2020-06-20T07:31:16.162Z</time>
      </trkpt>
      <trkpt lat="45.36066" lon="4.4575">
        <ele>1050.9212646484</ele>
        <time>2020-06-20T07:31:18.468Z</time>
      </trkpt>
      <trkpt lat="45.36046" lon="4.45789">
        <ele>1051.091796875</ele>
        <time>2020-06-20T07:31:20.780Z</time>
      </trkpt>
      <trkpt lat="45.36033" lon="4.45819">
        <ele>1051.50390625</ele>
        <time>2020-06-20T07:31:23.095Z</time>
      </trkpt>
      <trkpt lat="45.36015" lon="4.45845">
        <ele>1051.2585449219</ele>
        <time>2020-06-20T07:31:25.415Z</time>
      </trkpt>
      <trkpt lat="45.35948" lon="4.45948">
        <ele>1047.8041992188</ele>
        <time>2020-06-20T07:31:27.750Z</time>
      </trkpt>
      <trkpt lat="45.3592" lon="4.45992">
        <ele>1048.9714355469</ele>
        <time>2020-06-20T07:31:30.092Z</time>
      </trkpt>
      <trkpt lat="45.3592" lon="4.45992">
        <ele>1048.9711914062</ele>
        <time>2020-06-20T07:31:32.434Z</time>
      </trkpt>
      <trkpt lat="45.35835" lon="4.46124">
        <ele>1052.755859375</ele>
        <time>2020-06-20T07:31:34.796Z</time>
      </trkpt>
      <trkpt lat="45.35703" lon="4.46327">
        <ele>1056.6912841797</ele>
        <time>2020-06-20T07:31:37.189Z</time>
      </trkpt>
      <trkpt lat="45.35687" lon="4.46346">
        <ele>1055.2890625</ele>
        <time>2020-06-20T07:31:39.586Z</time>
      </trkpt>
      <trkpt lat="45.35612" lon="4.46467">
        <ele>1056.1483154297</ele>
        <time>2020-06-20T07:31:42.001Z</time>
      </trkpt>
      <trkpt lat="45.35534" lon="4.46588">
        <ele>1059.1459960938</ele>
        <time>2020-06-20T07:31:44.434Z</time>
      </trkpt>
      <trkpt lat="45.35326" lon="4.4691">
        <ele>1067.4412841797</ele>
        <time>2020-06-20T07:31:46.917Z</time>
      </trkpt>
      <trkpt lat="45.35259" lon="4.47022">
        <ele>1068.7353515625</ele>
        <time>2020-06-20T07:31:49.416Z</time>
      </trkpt>
      <trkpt lat="45.35252" lon="4.47039">
        <ele>1069.3375244141</ele>
        <time>2020-06-20T07:31:51.918Z</time>
      </trkpt>
      <trkpt lat="45.35024" lon="4.47553">
        <ele>1071.9134521484</ele>
        <time>2020-06-20T07:31:54.488Z</time>
      </trkpt>
      <trkpt lat="45.35" lon="4.47663">
        <ele>1070</ele>
        <time>2020-06-20T07:31:57.071Z</time>
      </trkpt>
      <trkpt lat="45.34988" lon="4.47733">
        <ele>1068.3596191406</ele>
        <time>2020-06-20T07:31:59.662Z</time>
      </trkpt>
      <trkpt lat="45.3495" lon="4.47942">
        <ele>1067.7164306641</ele>
        <time>2020-06-20T07:32:02.277Z</time>
      </trkpt>
      <trkpt lat="45.34919" lon="4.48018">
        <ele>1069.0802001953</ele>
        <time>2020-06-20T07:32:04.902Z</time>
      </trkpt>
      <trkpt lat="45.34845" lon="4.48097">
        <ele>1072.345703125</ele>
        <time>2020-06-20T07:32:07.542Z</time>
      </trkpt>
      <trkpt lat="45.34752" lon="4.48168">
        <ele>1080.5810546875</ele>
        <time>2020-06-20T07:32:10.199Z</time>
      </trkpt>
      <trkpt lat="45.34676" lon="4.48176">
        <ele>1085.5583496094</ele>
        <time>2020-06-20T07:32:12.868Z</time>
      </trkpt>
      <trkpt lat="45.34642" lon="4.48178">
        <ele>1085.6871337891</ele>
        <time>2020-06-20T07:32:15.543Z</time>
      </trkpt>
      <trkpt lat="45.34626" lon="4.4818">
        <ele>1085.9799804688</ele>
        <time>2020-06-20T07:32:18.220Z</time>
      </trkpt>
      <trkpt lat="45.34605" lon="4.4819">
        <ele>1086.7580566406</ele>
        <time>2020-06-20T07:32:20.901Z</time>
      </trkpt>
      <trkpt lat="45.34581" lon="4.48215">
        <ele>1089.6314697266</ele>
        <time>2020-06-20T07:32:23.587Z</time>
      </trkpt>
      <trkpt lat="45.34536" lon="4.48312">
        <ele>1098.0565185547</ele>
        <time>2020-06-20T07:32:26.286Z</time>
      </trkpt>
      <trkpt lat="45.34507" lon="4.48326">
        <ele>1098.6872558594</ele>
        <time>2020-06-20T07:32:28.990Z</time>
      </trkpt>
      <trkpt lat="45.34488" lon="4.48321">
        <ele>1096.1948242188</ele>
        <time>2020-06-20T07:32:31.697Z</time>
      </trkpt>
      <trkpt lat="45.34473" lon="4.483">
        <ele>1093.6589355469</ele>
        <time>2020-06-20T07:32:34.407Z</time>
      </trkpt>
      <trkpt lat="45.34442" lon="4.48199">
        <ele>1099.0280761719</ele>
        <time>2020-06-20T07:32:37.130Z</time>
      </trkpt>
      <trkpt lat="45.34403" lon="4.48046">
        <ele>1104.6320800781</ele>
        <time>2020-06-20T07:32:39.871Z</time>
      </trkpt>
      <trkpt lat="45.34403" lon="4.48046">
        <ele>1104.6333007812</ele>
        <time>2020-06-20T07:32:42.612Z</time>
      </trkpt>
      <trkpt lat="45.34371" lon="4.47974">
        <ele>1107.0620117188</ele>
        <time>2020-06-20T07:32:45.363Z</time>
      </trkpt>
      <trkpt lat="45.34312" lon="4.47895">
        <ele>1111.9359130859</ele>
        <time>2020-06-20T07:32:48.127Z</time>
      </trkpt>
      <trkpt lat="45.3428" lon="4.47869">
        <ele>1113.9422607422</ele>
        <time>2020-06-20T07:32:50.897Z</time>
      </trkpt>
      <trkpt lat="45.34223" lon="4.47855">
        <ele>1117.3754882812</ele>
        <time>2020-06-20T07:32:53.676Z</time>
      </trkpt>
      <trkpt lat="45.33882" lon="4.47889">
        <ele>1141.4024658203</ele>
        <time>2020-06-20T07:32:56.509Z</time>
      </trkpt>
      <trkpt lat="45.33781" lon="4.47909">
        <ele>1148.4481201172</ele>
        <time>2020-06-20T07:32:59.359Z</time>
      </trkpt>
      <trkpt lat="45.33566" lon="4.47999">
        <ele>1163.2080078125</ele>
        <time>2020-06-20T07:33:02.245Z</time>
      </trkpt>
      <trkpt lat="45.33486" lon="4.48044">
        <ele>1168.2736816406</ele>
        <time>2020-06-20T07:33:05.144Z</time>
      </trkpt>
      <trkpt lat="45.3345" lon="4.48052">
        <ele>1168.2514648438</ele>
        <time>2020-06-20T07:33:08.049Z</time>
      </trkpt>
      <trkpt lat="45.32998" lon="4.47964">
        <ele>1163.0649414062</ele>
        <time>2020-06-20T07:33:11.027Z</time>
      </trkpt>
      <trkpt lat="45.32998" lon="4.47964">
        <ele>1163.0642089844</ele>
        <time>2020-06-20T07:33:14.005Z</time>
      </trkpt>
      <trkpt lat="45.32898" lon="4.47954">
        <ele>1154.8580322266</ele>
        <time>2020-06-20T07:33:16.999Z</time>
      </trkpt>
      <trkpt lat="45.32816" lon="4.47984">
        <ele>1155.18359375</ele>
        <time>2020-06-20T07:33:20.007Z</time>
      </trkpt>
      <trkpt lat="45.32768" lon="4.48021">
        <ele>1154.5334472656</ele>
        <time>2020-06-20T07:33:23.024Z</time>
      </trkpt>
      <trkpt lat="45.32679" lon="4.48133">
        <ele>1151.3327636719</ele>
        <time>2020-06-20T07:33:26.060Z</time>
      </trkpt>
      <trkpt lat="45.32634" lon="4.48134">
        <ele>1143.2399902344</ele>
        <time>2020-06-20T07:33:29.103Z</time>
      </trkpt>
      <trkpt lat="45.32623" lon="4.48136">
        <ele>1142.7338867188</ele>
        <time>2020-06-20T07:33:32.148Z</time>
      </trkpt>
      <trkpt lat="45.32618" lon="4.48163">
        <ele>1143.5587158203</ele>
        <time>2020-06-20T07:33:35.196Z</time>
      </trkpt>
      <trkpt lat="45.32618" lon="4.48163">
        <ele>1143.5593261719</ele>
        <time>2020-06-20T07:33:38.244Z</time>
      </trkpt>
      <trkpt lat="45.32618" lon="4.48163">
        <ele>1143.5589599609</ele>
        <time>2020-06-20T07:33:41.292Z</time>
      </trkpt>
      <trkpt lat="45.32623" lon="4.48136">
        <ele>1142.7335205078</ele>
        <time>2020-06-20T07:33:44.343Z</time>
      </trkpt>
      <trkpt lat="45.3261" lon="4.48132">
        <ele>1143.0943603516</ele>
        <time>2020-06-20T07:33:47.396Z</time>
      </trkpt>
      <trkpt lat="45.32601" lon="4.48119">
        <ele>1143.1329345703</ele>
        <time>2020-06-20T07:33:50.451Z</time>
      </trkpt>
      <trkpt lat="45.32593" lon="4.48078">
        <ele>1144.2406005859</ele>
        <time>2020-06-20T07:33:53.511Z</time>
      </trkpt>
      <trkpt lat="45.32593" lon="4.47932">
        <ele>1140.8959960938</ele>
        <time>2020-06-20T07:33:56.587Z</time>
      </trkpt>
      <trkpt lat="45.32593" lon="4.47911">
        <ele>1140.7574462891</ele>
        <time>2020-06-20T07:33:59.666Z</time>
      </trkpt>
      <trkpt lat="45.32598" lon="4.47748">
        <ele>1133.4832763672</ele>
        <time>2020-06-20T07:34:02.763Z</time>
      </trkpt>
      <trkpt lat="45.3262" lon="4.47595">
        <ele>1130.0111083984</ele>
        <time>2020-06-20T07:34:05.878Z</time>
      </trkpt>
      <trkpt lat="45.32649" lon="4.47491">
        <ele>1124.0068359375</ele>
        <time>2020-06-20T07:34:09.005Z</time>
      </trkpt>
      <trkpt lat="45.32683" lon="4.47427">
        <ele>1119.3015136719</ele>
        <time>2020-06-20T07:34:12.142Z</time>
      </trkpt>
      <trkpt lat="45.32713" lon="4.47345">
        <ele>1114.8253173828</ele>
        <time>2020-06-20T07:34:15.289Z</time>
      </trkpt>
      <trkpt lat="45.32778" lon="4.47129">
        <ele>1105.3569335938</ele>
        <time>2020-06-20T07:34:18.462Z</time>
      </trkpt>
      <trkpt lat="45.32801" lon="4.471">
        <ele>1102.2103271484</ele>
        <time>2020-06-20T07:34:21.640Z</time>
      </trkpt>
      <trkpt lat="45.32801" lon="4.471">
        <ele>1102.2111816406</ele>
        <time>2020-06-20T07:34:24.818Z</time>
      </trkpt>
      <trkpt lat="45.32977" lon="4.46939">
        <ele>1093.1198730469</ele>
        <time>2020-06-20T07:34:28.030Z</time>
      </trkpt>
      <trkpt lat="45.3301" lon="4.46896">
        <ele>1093.0653076172</ele>
        <time>2020-06-20T07:34:31.249Z</time>
      </trkpt>
      <trkpt lat="45.33028" lon="4.46847">
        <ele>1092.2453613281</ele>
        <time>2020-06-20T07:34:34.474Z</time>
      </trkpt>
      <trkpt lat="45.33053" lon="4.46779">
        <ele>1089.7810058594</ele>
        <time>2020-06-20T07:34:37.708Z</time>
      </trkpt>
      <trkpt lat="45.33077" lon="4.46735">
        <ele>1087.9145507812</ele>
        <time>2020-06-20T07:34:40.948Z</time>
      </trkpt>
      <trkpt lat="45.3314" lon="4.46649">
        <ele>1080.83203125</ele>
        <time>2020-06-20T07:34:44.202Z</time>
      </trkpt>
      <trkpt lat="45.33209" lon="4.46611">
        <ele>1075.8991699219</ele>
        <time>2020-06-20T07:34:47.468Z</time>
      </trkpt>
      <trkpt lat="45.33252" lon="4.46601">
        <ele>1073.7932128906</ele>
        <time>2020-06-20T07:34:50.741Z</time>
      </trkpt>
      <trkpt lat="45.33295" lon="4.46593">
        <ele>1072.1326904297</ele>
        <time>2020-06-20T07:34:54.021Z</time>
      </trkpt>
      <trkpt lat="45.33381" lon="4.46605">
        <ele>1067.4641113281</ele>
        <time>2020-06-20T07:34:57.315Z</time>
      </trkpt>
      <trkpt lat="45.33381" lon="4.46605">
        <ele>1067.4645996094</ele>
        <time>2020-06-20T07:35:00.609Z</time>
      </trkpt>
      <trkpt lat="45.33449" lon="4.46616">
        <ele>1064.6840820312</ele>
        <time>2020-06-20T07:35:03.914Z</time>
      </trkpt>
      <trkpt lat="45.33558" lon="4.46605">
        <ele>1069.5053710938</ele>
        <time>2020-06-20T07:35:07.236Z</time>
      </trkpt>
      <trkpt lat="45.33582" lon="4.46584">
        <ele>1069.1192626953</ele>
        <time>2020-06-20T07:35:10.563Z</time>
      </trkpt>
      <trkpt lat="45.33619" lon="4.46526">
        <ele>1062.4886474609</ele>
        <time>2020-06-20T07:35:13.899Z</time>
      </trkpt>
      <trkpt lat="45.33666" lon="4.46477">
        <ele>1057.9608154297</ele>
        <time>2020-06-20T07:35:17.244Z</time>
      </trkpt>
      <trkpt lat="45.33712" lon="4.46445">
        <ele>1053.3957519531</ele>
        <time>2020-06-20T07:35:20.597Z</time>
      </trkpt>
      <trkpt lat="45.33819" lon="4.4639">
        <ele>1048.4494628906</ele>
        <time>2020-06-20T07:35:23.968Z</time>
      </trkpt>
      <trkpt lat="45.33978" lon="4.46272">
        <ele>1037.5133056641</ele>
        <time>2020-06-20T07:35:27.368Z</time>
      </trkpt>
      <trkpt lat="45.34025" lon="4.46223">
        <ele>1033.7493896484</ele>
        <time>2020-06-20T07:35:30.777Z</time>
      </trkpt>
      <trkpt lat="45.34049" lon="4.46177">
        <ele>1032.2814941406</ele>
        <time>2020-06-20T07:35:34.193Z</time>
      </trkpt>
      <trkpt lat="45.34083" lon="4.45945">
        <ele>1028.02734375</ele>
        <time>2020-06-20T07:35:37.636Z</time>
      </trkpt>
      <trkpt lat="45.34083" lon="4.45945">
        <ele>1028.0280761719</ele>
        <time>2020-06-20T07:35:41.079Z</time>
      </trkpt>
      <trkpt lat="45.34086" lon="4.45898">
        <ele>1028.6363525391</ele>
        <time>2020-06-20T07:35:44.527Z</time>
      </trkpt>
      <trkpt lat="45.34069" lon="4.45704">
        <ele>1025.7878417969</ele>
        <time>2020-06-20T07:35:47.997Z</time>
      </trkpt>
      <trkpt lat="45.34046" lon="4.45322">
        <ele>1028.0394287109</ele>
        <time>2020-06-20T07:35:51.510Z</time>
      </trkpt>
      <trkpt lat="45.34047" lon="4.45253">
        <ele>1030.4056396484</ele>
        <time>2020-06-20T07:35:55.031Z</time>
      </trkpt>
      <trkpt lat="45.3419" lon="4.44844">
        <ele>1022.922668457</ele>
        <time>2020-06-20T07:35:58.604Z</time>
      </trkpt>
      <trkpt lat="45.3419" lon="4.44845">
        <ele>1022.8989257812</ele>
        <time>2020-06-20T07:36:02.177Z</time>
      </trkpt>
      <trkpt lat="45.3419" lon="4.44845">
        <ele>1022.8980712891</ele>
        <time>2020-06-20T07:36:05.750Z</time>
      </trkpt>
      <trkpt lat="45.34232" lon="4.44722">
        <ele>1015.3480834961</ele>
        <time>2020-06-20T07:36:09.338Z</time>
      </trkpt>
      <trkpt lat="45.34251" lon="4.44677">
        <ele>1013.7912597656</ele>
        <time>2020-06-20T07:36:12.932Z</time>
      </trkpt>
      <trkpt lat="45.34307" lon="4.44617">
        <ele>1005.8400878906</ele>
        <time>2020-06-20T07:36:16.537Z</time>
      </trkpt>
      <trkpt lat="45.34326" lon="4.44585">
        <ele>1005.4847412109</ele>
        <time>2020-06-20T07:36:20.147Z</time>
      </trkpt>
      <trkpt lat="45.34348" lon="4.4453">
        <ele>1000.3668823242</ele>
        <time>2020-06-20T07:36:23.764Z</time>
      </trkpt>
      <trkpt lat="45.34369" lon="4.44436">
        <ele>998.48645019531</ele>
        <time>2020-06-20T07:36:27.392Z</time>
      </trkpt>
      <trkpt lat="45.34421" lon="4.44246">
        <ele>986.05358886719</ele>
        <time>2020-06-20T07:36:31.043Z</time>
      </trkpt>
      <trkpt lat="45.34429" lon="4.44221">
        <ele>983.39294433594</ele>
        <time>2020-06-20T07:36:34.697Z</time>
      </trkpt>
      <trkpt lat="45.34427" lon="4.44159">
        <ele>977.79772949219</ele>
        <time>2020-06-20T07:36:38.358Z</time>
      </trkpt>
      <trkpt lat="45.34368" lon="4.44038">
        <ele>971.12921142578</ele>
        <time>2020-06-20T07:36:42.036Z</time>
      </trkpt>
      <trkpt lat="45.34425" lon="4.44023">
        <ele>967.07611083984</ele>
        <time>2020-06-20T07:36:45.723Z</time>
      </trkpt>
      <trkpt lat="45.34494" lon="4.44028">
        <ele>964.70141601562</ele>
        <time>2020-06-20T07:36:49.421Z</time>
      </trkpt>
      <trkpt lat="45.34548" lon="4.43943">
        <ele>964.02197265625</ele>
        <time>2020-06-20T07:36:53.132Z</time>
      </trkpt>
      <trkpt lat="45.34562" lon="4.43881">
        <ele>964.69134521484</ele>
        <time>2020-06-20T07:36:56.851Z</time>
      </trkpt>
      <trkpt lat="45.34587" lon="4.43846">
        <ele>964.21313476562</ele>
        <time>2020-06-20T07:37:00.575Z</time>
      </trkpt>
      <trkpt lat="45.34717" lon="4.43737">
        <ele>967.07891845703</ele>
        <time>2020-06-20T07:37:04.324Z</time>
      </trkpt>
      <trkpt lat="45.34714" lon="4.43673">
        <ele>967.94354248047</ele>
        <time>2020-06-20T07:37:08.080Z</time>
      </trkpt>
      <trkpt lat="45.34625" lon="4.43531">
        <ele>966.90594482422</ele>
        <time>2020-06-20T07:37:11.857Z</time>
      </trkpt>
      <trkpt lat="45.34553" lon="4.43314">
        <ele>962.19232177734</ele>
        <time>2020-06-20T07:37:15.661Z</time>
      </trkpt>
      <trkpt lat="45.34625" lon="4.43275">
        <ele>966.48217773438</ele>
        <time>2020-06-20T07:37:19.478Z</time>
      </trkpt>
      <trkpt lat="45.3482" lon="4.43299">
        <ele>975.16931152344</ele>
        <time>2020-06-20T07:37:23.326Z</time>
      </trkpt>
      <trkpt lat="45.34848" lon="4.43337">
        <ele>977.14312744141</ele>
        <time>2020-06-20T07:37:27.180Z</time>
      </trkpt>
      <trkpt lat="45.34907" lon="4.43365">
        <ele>979.61029052734</ele>
        <time>2020-06-20T07:37:31.044Z</time>
      </trkpt>
      <trkpt lat="45.34943" lon="4.43397">
        <ele>979.72961425781</ele>
        <time>2020-06-20T07:37:34.915Z</time>
      </trkpt>
      <trkpt lat="45.34982" lon="4.43401">
        <ele>980.3603515625</ele>
        <time>2020-06-20T07:37:38.792Z</time>
      </trkpt>
      <trkpt lat="45.35018" lon="4.43363">
        <ele>982.89672851562</ele>
        <time>2020-06-20T07:37:42.676Z</time>
      </trkpt>
      <trkpt lat="45.3509" lon="4.43329">
        <ele>987.32397460938</ele>
        <time>2020-06-20T07:37:46.572Z</time>
      </trkpt>
      <trkpt lat="45.35184" lon="4.43223">
        <ele>998.16491699219</ele>
        <time>2020-06-20T07:37:50.488Z</time>
      </trkpt>
      <trkpt lat="45.35259" lon="4.43175">
        <ele>1010.0990600586</ele>
        <time>2020-06-20T07:37:54.417Z</time>
      </trkpt>
      <trkpt lat="45.3529" lon="4.43119">
        <ele>1018.3068847656</ele>
        <time>2020-06-20T07:37:58.354Z</time>
      </trkpt>
      <trkpt lat="45.35306" lon="4.43037">
        <ele>1022.7095947266</ele>
        <time>2020-06-20T07:38:02.301Z</time>
      </trkpt>
      <trkpt lat="45.35306" lon="4.43037">
        <ele>1022.7120361328</ele>
        <time>2020-06-20T07:38:06.248Z</time>
      </trkpt>
      <trkpt lat="45.35319" lon="4.42957">
        <ele>1024.3946533203</ele>
        <time>2020-06-20T07:38:10.204Z</time>
      </trkpt>
      <trkpt lat="45.35343" lon="4.42695">
        <ele>1035.083984375</ele>
        <time>2020-06-20T07:38:14.190Z</time>
      </trkpt>
      <trkpt lat="45.35356" lon="4.42649">
        <ele>1041.2358398438</ele>
        <time>2020-06-20T07:38:18.181Z</time>
      </trkpt>
      <trkpt lat="45.35401" lon="4.42873">
        <ele>1040.0717773438</ele>
        <time>2020-06-20T07:38:22.198Z</time>
      </trkpt>
      <trkpt lat="45.35399" lon="4.42938">
        <ele>1041.8571777344</ele>
        <time>2020-06-20T07:38:26.223Z</time>
      </trkpt>
      <trkpt lat="45.35384" lon="4.43044">
        <ele>1045.1904296875</ele>
        <time>2020-06-20T07:38:30.260Z</time>
      </trkpt>
      <trkpt lat="45.3539" lon="4.43115">
        <ele>1049.5155029297</ele>
        <time>2020-06-20T07:38:34.305Z</time>
      </trkpt>
      <trkpt lat="45.35407" lon="4.43156">
        <ele>1053.1477050781</ele>
        <time>2020-06-20T07:38:38.355Z</time>
      </trkpt>
      <trkpt lat="45.35534" lon="4.43364">
        <ele>1064.4907226562</ele>
        <time>2020-06-20T07:38:42.436Z</time>
      </trkpt>
      <trkpt lat="45.35545" lon="4.43377">
        <ele>1064.3778076172</ele>
        <time>2020-06-20T07:38:46.520Z</time>
      </trkpt>
      <trkpt lat="45.35658" lon="4.43465">
        <ele>1065.5250244141</ele>
        <time>2020-06-20T07:38:50.624Z</time>
      </trkpt>
      <trkpt lat="45.35703" lon="4.43482">
        <ele>1065.1904296875</ele>
        <time>2020-06-20T07:38:54.736Z</time>
      </trkpt>
      <trkpt lat="45.35775" lon="4.43488">
        <ele>1066.7564697266</ele>
        <time>2020-06-20T07:38:58.859Z</time>
      </trkpt>
      <trkpt lat="45.35907" lon="4.43486">
        <ele>1066.5977783203</ele>
        <time>2020-06-20T07:39:03.003Z</time>
      </trkpt>
      <trkpt lat="45.35907" lon="4.43486">
        <ele>1066.6011962891</ele>
        <time>2020-06-20T07:39:07.147Z</time>
      </trkpt>
      <trkpt lat="45.35907" lon="4.43486">
        <ele>1066.6013183594</ele>
        <time>2020-06-20T07:39:11.291Z</time>
      </trkpt>
      <trkpt lat="45.35942" lon="4.43485">
        <ele>1065.7266845703</ele>
        <time>2020-06-20T07:39:15.441Z</time>
      </trkpt>
      <trkpt lat="45.36151" lon="4.4346">
        <ele>1063.2974853516</ele>
        <time>2020-06-20T07:39:19.625Z</time>
      </trkpt>
      <trkpt lat="45.36384" lon="4.43421">
        <ele>1065.2008056641</ele>
        <time>2020-06-20T07:39:23.846Z</time>
      </trkpt>
      <trkpt lat="45.3644" lon="4.43429">
        <ele>1062.6778564453</ele>
        <time>2020-06-20T07:39:28.076Z</time>
      </trkpt>
      <trkpt lat="45.36488" lon="4.4347">
        <ele>1059.99609375</ele>
        <time>2020-06-20T07:39:32.315Z</time>
      </trkpt>
      <trkpt lat="45.36541" lon="4.43544">
        <ele>1056.4036865234</ele>
        <time>2020-06-20T07:39:36.566Z</time>
      </trkpt>
      <trkpt lat="45.36626" lon="4.43627">
        <ele>1054.4957275391</ele>
        <time>2020-06-20T07:39:40.834Z</time>
      </trkpt>
      <trkpt lat="45.36711" lon="4.43645">
        <ele>1052.0872802734</ele>
        <time>2020-06-20T07:39:45.115Z</time>
      </trkpt>
      <trkpt lat="45.36749" lon="4.4367">
        <ele>1051.580078125</ele>
        <time>2020-06-20T07:39:49.403Z</time>
      </trkpt>
      <trkpt lat="45.36757" lon="4.43677">
        <ele>1051.4899902344</ele>
        <time>2020-06-20T07:39:53.693Z</time>
      </trkpt>
      <trkpt lat="45.36768" lon="4.43692">
        <ele>1051.361328125</ele>
        <time>2020-06-20T07:39:57.985Z</time>
      </trkpt>
      <trkpt lat="45.36778" lon="4.43655">
        <ele>1051.8331298828</ele>
        <time>2020-06-20T07:40:02.282Z</time>
      </trkpt>
      <trkpt lat="45.36787" lon="4.43607">
        <ele>1052.7711181641</ele>
        <time>2020-06-20T07:40:06.584Z</time>
      </trkpt>
      <trkpt lat="45.368" lon="4.43525">
        <ele>1052.8465576172</ele>
        <time>2020-06-20T07:40:10.896Z</time>
      </trkpt>
      <trkpt lat="45.36818" lon="4.43377">
        <ele>1051.2774658203</ele>
        <time>2020-06-20T07:40:15.225Z</time>
      </trkpt>
      <trkpt lat="45.36803" lon="4.43338">
        <ele>1049.8782958984</ele>
        <time>2020-06-20T07:40:19.558Z</time>
      </trkpt>
      <trkpt lat="45.36756" lon="4.43274">
        <ele>1044.6663818359</ele>
        <time>2020-06-20T07:40:23.902Z</time>
      </trkpt>
      <trkpt lat="45.36743" lon="4.43244">
        <ele>1043.3791503906</ele>
        <time>2020-06-20T07:40:28.250Z</time>
      </trkpt>
      <trkpt lat="45.36738" lon="4.43197">
        <ele>1042.8148193359</ele>
        <time>2020-06-20T07:40:32.603Z</time>
      </trkpt>
      <trkpt lat="45.36728" lon="4.43175">
        <ele>1042.1970214844</ele>
        <time>2020-06-20T07:40:36.959Z</time>
      </trkpt>
      <trkpt lat="45.36674" lon="4.43113">
        <ele>1036.1241455078</ele>
        <time>2020-06-20T07:40:41.326Z</time>
      </trkpt>
      <trkpt lat="45.36636" lon="4.4298">
        <ele>1025.6087646484</ele>
        <time>2020-06-20T07:40:45.710Z</time>
      </trkpt>
      <trkpt lat="45.36642" lon="4.42943">
        <ele>1024.1916503906</ele>
        <time>2020-06-20T07:40:50.098Z</time>
      </trkpt>
      <trkpt lat="45.36675" lon="4.42893">
        <ele>1021.5440063477</ele>
        <time>2020-06-20T07:40:54.494Z</time>
      </trkpt>
      <trkpt lat="45.36711" lon="4.42861">
        <ele>1018.9195556641</ele>
        <time>2020-06-20T07:40:58.896Z</time>
      </trkpt>
      <trkpt lat="45.36739" lon="4.42838">
        <ele>1013.6505126953</ele>
        <time>2020-06-20T07:41:03.303Z</time>
      </trkpt>
      <trkpt lat="45.3681" lon="4.42831">
        <ele>1014.5745849609</ele>
        <time>2020-06-20T07:41:07.722Z</time>
      </trkpt>
      <trkpt lat="45.36826" lon="4.42812">
        <ele>1016.7886352539</ele>
        <time>2020-06-20T07:41:12.144Z</time>
      </trkpt>
      <trkpt lat="45.36832" lon="4.4277">
        <ele>1018.7698974609</ele>
        <time>2020-06-20T07:41:16.571Z</time>
      </trkpt>
      <trkpt lat="45.36803" lon="4.42557">
        <ele>1011.7835083008</ele>
        <time>2020-06-20T07:41:21.022Z</time>
      </trkpt>
      <trkpt lat="45.36806" lon="4.42526">
        <ele>1010.6467895508</ele>
        <time>2020-06-20T07:41:25.477Z</time>
      </trkpt>
      <trkpt lat="45.36825" lon="4.42461">
        <ele>1007.6303100586</ele>
        <time>2020-06-20T07:41:29.940Z</time>
      </trkpt>
      <trkpt lat="45.36846" lon="4.42422">
        <ele>1002.6002197266</ele>
        <time>2020-06-20T07:41:34.408Z</time>
      </trkpt>
      <trkpt lat="45.36876" lon="4.42389">
        <ele>992.98175048828</ele>
        <time>2020-06-20T07:41:38.883Z</time>
      </trkpt>
      <trkpt lat="45.36904" lon="4.4237">
        <ele>991.02490234375</ele>
        <time>2020-06-20T07:41:43.362Z</time>
      </trkpt>
      <trkpt lat="45.36937" lon="4.42365">
        <ele>995.71978759766</ele>
        <time>2020-06-20T07:41:47.847Z</time>
      </trkpt>
      <trkpt lat="45.36937" lon="4.42365">
        <ele>995.72106933594</ele>
        <time>2020-06-20T07:41:52.332Z</time>
      </trkpt>
      <trkpt lat="45.36953" lon="4.42362">
        <ele>998.07543945312</ele>
        <time>2020-06-20T07:41:56.819Z</time>
      </trkpt>
      <trkpt lat="45.36965" lon="4.42345">
        <ele>1001.9080810547</ele>
        <time>2020-06-20T07:42:01.309Z</time>
      </trkpt>
      <trkpt lat="45.36966" lon="4.42327">
        <ele>1003.6329956055</ele>
        <time>2020-06-20T07:42:05.801Z</time>
      </trkpt>
      <trkpt lat="45.36961" lon="4.42308">
        <ele>1003.7502441406</ele>
        <time>2020-06-20T07:42:10.295Z</time>
      </trkpt>
      <trkpt lat="45.36918" lon="4.42245">
        <ele>992.68603515625</ele>
        <time>2020-06-20T07:42:14.799Z</time>
      </trkpt>
      <trkpt lat="45.36911" lon="4.4223">
        <ele>990.46954345703</ele>
        <time>2020-06-20T07:42:19.305Z</time>
      </trkpt>
      <trkpt lat="45.36913" lon="4.42185">
        <ele>987.85540771484</ele>
        <time>2020-06-20T07:42:23.816Z</time>
      </trkpt>
      <trkpt lat="45.36927" lon="4.42102">
        <ele>982.43737792969</ele>
        <time>2020-06-20T07:42:28.337Z</time>
      </trkpt>
      <trkpt lat="45.36948" lon="4.42038">
        <ele>980.61486816406</ele>
        <time>2020-06-20T07:42:32.866Z</time>
      </trkpt>
      <trkpt lat="45.36939" lon="4.42021">
        <ele>980.34326171875</ele>
        <time>2020-06-20T07:42:37.397Z</time>
      </trkpt>
      <trkpt lat="45.36869" lon="4.42019">
        <ele>976.69366455078</ele>
        <time>2020-06-20T07:42:41.940Z</time>
      </trkpt>
      <trkpt lat="45.3685" lon="4.42006">
        <ele>976.05004882812</ele>
        <time>2020-06-20T07:42:46.486Z</time>
      </trkpt>
      <trkpt lat="45.36804" lon="4.41886">
        <ele>975.45764160156</ele>
        <time>2020-06-20T07:42:51.047Z</time>
      </trkpt>
      <trkpt lat="45.36803" lon="4.41865">
        <ele>975.38104248047</ele>
        <time>2020-06-20T07:42:55.611Z</time>
      </trkpt>
      <trkpt lat="45.36801" lon="4.41845">
        <ele>975.22595214844</ele>
        <time>2020-06-20T07:43:00.177Z</time>
      </trkpt>
      <trkpt lat="45.36827" lon="4.41706">
        <ele>974.31237792969</ele>
        <time>2020-06-20T07:43:04.759Z</time>
      </trkpt>
      <trkpt lat="45.36858" lon="4.41582">
        <ele>969.70776367188</ele>
        <time>2020-06-20T07:43:09.356Z</time>
      </trkpt>
      <trkpt lat="45.3688" lon="4.41547">
        <ele>967.91851806641</ele>
        <time>2020-06-20T07:43:13.958Z</time>
      </trkpt>
      <trkpt lat="45.37114" lon="4.41369">
        <ele>958.1689453125</ele>
        <time>2020-06-20T07:43:18.603Z</time>
      </trkpt>
      <trkpt lat="45.37167" lon="4.41281">
        <ele>955.34997558594</ele>
        <time>2020-06-20T07:43:23.261Z</time>
      </trkpt>
      <trkpt lat="45.37223" lon="4.41216">
        <ele>955.59704589844</ele>
        <time>2020-06-20T07:43:27.931Z</time>
      </trkpt>
      <trkpt lat="45.37268" lon="4.41155">
        <ele>963.16650390625</ele>
        <time>2020-06-20T07:43:32.610Z</time>
      </trkpt>
      <trkpt lat="45.37283" lon="4.41118">
        <ele>965.45776367188</ele>
        <time>2020-06-20T07:43:37.294Z</time>
      </trkpt>
      <trkpt lat="45.37299" lon="4.41111">
        <ele>969.02093505859</ele>
        <time>2020-06-20T07:43:41.981Z</time>
      </trkpt>
      <trkpt lat="45.37304" lon="4.41051">
        <ele>969.14965820312</ele>
        <time>2020-06-20T07:43:46.675Z</time>
      </trkpt>
      <trkpt lat="45.37304" lon="4.41051">
        <ele>969.14990234375</ele>
        <time>2020-06-20T07:43:51.369Z</time>
      </trkpt>
      <trkpt lat="45.3731" lon="4.41001">
        <ele>966.67639160156</ele>
        <time>2020-06-20T07:43:56.068Z</time>
      </trkpt>
      <trkpt lat="45.37333" lon="4.40906">
        <ele>965.46508789062</ele>
        <time>2020-06-20T07:44:00.779Z</time>
      </trkpt>
      <trkpt lat="45.37333" lon="4.40906">
        <ele>965.46697998047</ele>
        <time>2020-06-20T07:44:05.490Z</time>
      </trkpt>
      <trkpt lat="45.37359" lon="4.40801">
        <ele>965.64495849609</ele>
        <time>2020-06-20T07:44:10.213Z</time>
      </trkpt>
      <trkpt lat="45.37359" lon="4.40801">
        <ele>965.64404296875</ele>
        <time>2020-06-20T07:44:14.936Z</time>
      </trkpt>
      <trkpt lat="45.37359" lon="4.40801">
        <ele>965.6455078125</ele>
        <time>2020-06-20T07:44:19.659Z</time>
      </trkpt>
      <trkpt lat="45.37364" lon="4.40778">
        <ele>965.61370849609</ele>
        <time>2020-06-20T07:44:24.385Z</time>
      </trkpt>
      <trkpt lat="45.374" lon="4.40679">
        <ele>955.71069335938</ele>
        <time>2020-06-20T07:44:29.124Z</time>
      </trkpt>
      <trkpt lat="45.37444" lon="4.40609">
        <ele>942.4033203125</ele>
        <time>2020-06-20T07:44:33.873Z</time>
      </trkpt>
      <trkpt lat="45.37476" lon="4.40599">
        <ele>939.51000976562</ele>
        <time>2020-06-20T07:44:38.628Z</time>
      </trkpt>
      <trkpt lat="45.37505" lon="4.40613">
        <ele>938.41589355469</ele>
        <time>2020-06-20T07:44:43.387Z</time>
      </trkpt>
      <trkpt lat="45.37525" lon="4.40653">
        <ele>938.26403808594</ele>
        <time>2020-06-20T07:44:48.152Z</time>
      </trkpt>
      <trkpt lat="45.37549" lon="4.40782">
        <ele>934.83508300781</ele>
        <time>2020-06-20T07:44:52.932Z</time>
      </trkpt>
      <trkpt lat="45.37606" lon="4.40944">
        <ele>921.5439453125</ele>
        <time>2020-06-20T07:44:57.732Z</time>
      </trkpt>
      <trkpt lat="45.37616" lon="4.40998">
        <ele>920.41680908203</ele>
        <time>2020-06-20T07:45:02.539Z</time>
      </trkpt>
      <trkpt lat="45.37616" lon="4.40998">
        <ele>920.41497802734</ele>
        <time>2020-06-20T07:45:07.346Z</time>
      </trkpt>
      <trkpt lat="45.37664" lon="4.41169">
        <ele>926.45910644531</ele>
        <time>2020-06-20T07:45:12.173Z</time>
      </trkpt>
      <trkpt lat="45.37664" lon="4.41169">
        <ele>926.45782470703</ele>
        <time>2020-06-20T07:45:17.000Z</time>
      </trkpt>
      <trkpt lat="45.3768" lon="4.41187">
        <ele>925.48083496094</ele>
        <time>2020-06-20T07:45:21.831Z</time>
      </trkpt>
      <trkpt lat="45.37708" lon="4.41202">
        <ele>922.59497070312</ele>
        <time>2020-06-20T07:45:26.667Z</time>
      </trkpt>
      <trkpt lat="45.37799" lon="4.4119">
        <ele>927.45654296875</ele>
        <time>2020-06-20T07:45:31.517Z</time>
      </trkpt>
      <trkpt lat="45.37811" lon="4.41177">
        <ele>928.92401123047</ele>
        <time>2020-06-20T07:45:36.370Z</time>
      </trkpt>
      <trkpt lat="45.37843" lon="4.41062">
        <ele>925.26190185547</ele>
        <time>2020-06-20T07:45:41.236Z</time>
      </trkpt>
      <trkpt lat="45.37843" lon="4.41062">
        <ele>925.26348876953</ele>
        <time>2020-06-20T07:45:46.102Z</time>
      </trkpt>
      <trkpt lat="45.37853" lon="4.41002">
        <ele>918.45971679688</ele>
        <time>2020-06-20T07:45:50.975Z</time>
      </trkpt>
      <trkpt lat="45.37928" lon="4.40809">
        <ele>912.94360351562</ele>
        <time>2020-06-20T07:45:55.873Z</time>
      </trkpt>
      <trkpt lat="45.37928" lon="4.40809">
        <ele>912.94543457031</ele>
        <time>2020-06-20T07:46:00.771Z</time>
      </trkpt>
      <trkpt lat="45.37953" lon="4.40677">
        <ele>906.47607421875</ele>
        <time>2020-06-20T07:46:05.685Z</time>
      </trkpt>
      <trkpt lat="45.3802" lon="4.40475">
        <ele>897.4169921875</ele>
        <time>2020-06-20T07:46:10.624Z</time>
      </trkpt>
      <trkpt lat="45.38068" lon="4.40351">
        <ele>889.580078125</ele>
        <time>2020-06-20T07:46:15.579Z</time>
      </trkpt>
      <trkpt lat="45.38115" lon="4.40295">
        <ele>882.81121826172</ele>
        <time>2020-06-20T07:46:20.544Z</time>
      </trkpt>
      <trkpt lat="45.38162" lon="4.40272">
        <ele>879.97717285156</ele>
        <time>2020-06-20T07:46:25.517Z</time>
      </trkpt>
      <trkpt lat="45.38174" lon="4.40267">
        <ele>879.46228027344</ele>
        <time>2020-06-20T07:46:30.492Z</time>
      </trkpt>
      <trkpt lat="45.38174" lon="4.40267">
        <ele>879.46270751953</ele>
        <time>2020-06-20T07:46:35.467Z</time>
      </trkpt>
      <trkpt lat="45.38214" lon="4.40258">
        <ele>882.26745605469</ele>
        <time>2020-06-20T07:46:40.448Z</time>
      </trkpt>
      <trkpt lat="45.3825" lon="4.40235">
        <ele>885.98046875</ele>
        <time>2020-06-20T07:46:45.435Z</time>
      </trkpt>
      <trkpt lat="45.38267" lon="4.40201">
        <ele>888.52081298828</ele>
        <time>2020-06-20T07:46:50.427Z</time>
      </trkpt>
      <trkpt lat="45.38267" lon="4.40156">
        <ele>890.71563720703</ele>
        <time>2020-06-20T07:46:55.424Z</time>
      </trkpt>
      <trkpt lat="45.38249" lon="4.40117">
        <ele>888.39862060547</ele>
        <time>2020-06-20T07:47:00.426Z</time>
      </trkpt>
      <trkpt lat="45.38191" lon="4.40046">
        <ele>882.51806640625</ele>
        <time>2020-06-20T07:47:05.441Z</time>
      </trkpt>
      <trkpt lat="45.38136" lon="4.39918">
        <ele>885.54321289062</ele>
        <time>2020-06-20T07:47:10.473Z</time>
      </trkpt>
      <trkpt lat="45.38051" lon="4.39789">
        <ele>876.78009033203</ele>
        <time>2020-06-20T07:47:15.525Z</time>
      </trkpt>
      <trkpt lat="45.38025" lon="4.39712">
        <ele>872.64575195312</ele>
        <time>2020-06-20T07:47:20.586Z</time>
      </trkpt>
      <trkpt lat="45.37982" lon="4.39645">
        <ele>863.44201660156</ele>
        <time>2020-06-20T07:47:25.657Z</time>
      </trkpt>
      <trkpt lat="45.37978" lon="4.39575">
        <ele>860.1748046875</ele>
        <time>2020-06-20T07:47:30.736Z</time>
      </trkpt>
      <trkpt lat="45.37984" lon="4.39529">
        <ele>858.88836669922</ele>
        <time>2020-06-20T07:47:35.821Z</time>
      </trkpt>
      <trkpt lat="45.38011" lon="4.39439">
        <ele>859.07440185547</ele>
        <time>2020-06-20T07:47:40.917Z</time>
      </trkpt>
      <trkpt lat="45.38014" lon="4.39393">
        <ele>856.87078857422</ele>
        <time>2020-06-20T07:47:46.018Z</time>
      </trkpt>
      <trkpt lat="45.38012" lon="4.39217">
        <ele>842.16784667969</ele>
        <time>2020-06-20T07:47:51.139Z</time>
      </trkpt>
      <trkpt lat="45.38033" lon="4.39155">
        <ele>830.56121826172</ele>
        <time>2020-06-20T07:47:56.267Z</time>
      </trkpt>
      <trkpt lat="45.38033" lon="4.39155">
        <ele>830.56121826172</ele>
        <time>2020-06-20T07:48:01.395Z</time>
      </trkpt>
      <trkpt lat="45.38065" lon="4.39134">
        <ele>825.98620605469</ele>
        <time>2020-06-20T07:48:06.529Z</time>
      </trkpt>
      <trkpt lat="45.38181" lon="4.39133">
        <ele>835.43133544922</ele>
        <time>2020-06-20T07:48:11.682Z</time>
      </trkpt>
      <trkpt lat="45.38211" lon="4.39118">
        <ele>839.75646972656</ele>
        <time>2020-06-20T07:48:16.840Z</time>
      </trkpt>
      <trkpt lat="45.38226" lon="4.39089">
        <ele>840.560546875</ele>
        <time>2020-06-20T07:48:22.002Z</time>
      </trkpt>
      <trkpt lat="45.38227" lon="4.39009">
        <ele>833.02496337891</ele>
        <time>2020-06-20T07:48:27.173Z</time>
      </trkpt>
      <trkpt lat="45.38242" lon="4.38949">
        <ele>832.84478759766</ele>
        <time>2020-06-20T07:48:32.351Z</time>
      </trkpt>
      <trkpt lat="45.38245" lon="4.3888">
        <ele>828.03948974609</ele>
        <time>2020-06-20T07:48:37.537Z</time>
      </trkpt>
      <trkpt lat="45.3824" lon="4.38822">
        <ele>818.97723388672</ele>
        <time>2020-06-20T07:48:42.729Z</time>
      </trkpt>
      <trkpt lat="45.38249" lon="4.38791">
        <ele>814.42785644531</ele>
        <time>2020-06-20T07:48:47.925Z</time>
      </trkpt>
      <trkpt lat="45.38278" lon="4.38765">
        <ele>811.72552490234</ele>
        <time>2020-06-20T07:48:53.127Z</time>
      </trkpt>
      <trkpt lat="45.38405" lon="4.38703">
        <ele>811.97619628906</ele>
        <time>2020-06-20T07:48:58.350Z</time>
      </trkpt>
      <trkpt lat="45.38453" lon="4.38658">
        <ele>817.90582275391</ele>
        <time>2020-06-20T07:49:03.582Z</time>
      </trkpt>
      <trkpt lat="45.38471" lon="4.38611">
        <ele>818.52587890625</ele>
        <time>2020-06-20T07:49:08.820Z</time>
      </trkpt>
      <trkpt lat="45.38469" lon="4.38577">
        <ele>823.26049804688</ele>
        <time>2020-06-20T07:49:14.062Z</time>
      </trkpt>
      <trkpt lat="45.38451" lon="4.38553">
        <ele>822.51257324219</ele>
        <time>2020-06-20T07:49:19.308Z</time>
      </trkpt>
      <trkpt lat="45.38409" lon="4.38537">
        <ele>815.48419189453</ele>
        <time>2020-06-20T07:49:24.561Z</time>
      </trkpt>
      <trkpt lat="45.38378" lon="4.38514">
        <ele>812.22998046875</ele>
        <time>2020-06-20T07:49:29.820Z</time>
      </trkpt>
      <trkpt lat="45.3837" lon="4.38479">
        <ele>816.52935791016</ele>
        <time>2020-06-20T07:49:35.083Z</time>
      </trkpt>
      <trkpt lat="45.38347" lon="4.38462">
        <ele>815.08764648438</ele>
        <time>2020-06-20T07:49:40.350Z</time>
      </trkpt>
      <trkpt lat="45.38299" lon="4.38454">
        <ele>806.74731445312</ele>
        <time>2020-06-20T07:49:45.625Z</time>
      </trkpt>
      <trkpt lat="45.38261" lon="4.38425">
        <ele>800.95043945312</ele>
        <time>2020-06-20T07:49:50.907Z</time>
      </trkpt>
      <trkpt lat="45.38238" lon="4.38389">
        <ele>797.75811767578</ele>
        <time>2020-06-20T07:49:56.194Z</time>
      </trkpt>
      <trkpt lat="45.38229" lon="4.38329">
        <ele>795.51116943359</ele>
        <time>2020-06-20T07:50:01.488Z</time>
      </trkpt>
      <trkpt lat="45.38235" lon="4.38264">
        <ele>789.37725830078</ele>
        <time>2020-06-20T07:50:06.790Z</time>
      </trkpt>
      <trkpt lat="45.38263" lon="4.38214">
        <ele>784.24829101562</ele>
        <time>2020-06-20T07:50:12.099Z</time>
      </trkpt>
      <trkpt lat="45.38394" lon="4.38094">
        <ele>778.61383056641</ele>
        <time>2020-06-20T07:50:17.433Z</time>
      </trkpt>
      <trkpt lat="45.38438" lon="4.38038">
        <ele>773.3837890625</ele>
        <time>2020-06-20T07:50:22.776Z</time>
      </trkpt>
      <trkpt lat="45.38489" lon="4.37951">
        <ele>753.18902587891</ele>
        <time>2020-06-20T07:50:28.132Z</time>
      </trkpt>
      <trkpt lat="45.38505" lon="4.3794">
        <ele>749.34454345703</ele>
        <time>2020-06-20T07:50:33.491Z</time>
      </trkpt>
      <trkpt lat="45.3857" lon="4.37968">
        <ele>763.07916259766</ele>
        <time>2020-06-20T07:50:38.861Z</time>
      </trkpt>
      <trkpt lat="45.38593" lon="4.37963">
        <ele>766.27154541016</ele>
        <time>2020-06-20T07:50:44.234Z</time>
      </trkpt>
      <trkpt lat="45.38667" lon="4.37889">
        <ele>756.25433349609</ele>
        <time>2020-06-20T07:50:49.622Z</time>
      </trkpt>
      <trkpt lat="45.38712" lon="4.37859">
        <ele>761.36480712891</ele>
        <time>2020-06-20T07:50:55.018Z</time>
      </trkpt>
      <trkpt lat="45.38731" lon="4.37834">
        <ele>759.63385009766</ele>
        <time>2020-06-20T07:51:00.418Z</time>
      </trkpt>
      <trkpt lat="45.38758" lon="4.3778">
        <ele>752.02905273438</ele>
        <time>2020-06-20T07:51:05.825Z</time>
      </trkpt>
      <trkpt lat="45.38793" lon="4.37743">
        <ele>749.02124023438</ele>
        <time>2020-06-20T07:51:11.239Z</time>
      </trkpt>
      <trkpt lat="45.38823" lon="4.37718">
        <ele>747.09783935547</ele>
        <time>2020-06-20T07:51:16.659Z</time>
      </trkpt>
      <trkpt lat="45.38852" lon="4.37705">
        <ele>751.03680419922</ele>
        <time>2020-06-20T07:51:22.084Z</time>
      </trkpt>
      <trkpt lat="45.38852" lon="4.37705">
        <ele>751.03863525391</ele>
        <time>2020-06-20T07:51:27.509Z</time>
      </trkpt>
      <trkpt lat="45.38886" lon="4.37686">
        <ele>755.79772949219</ele>
        <time>2020-06-20T07:51:32.940Z</time>
      </trkpt>
      <trkpt lat="45.38897" lon="4.37661">
        <ele>756.376953125</ele>
        <time>2020-06-20T07:51:38.374Z</time>
      </trkpt>
      <trkpt lat="45.38897" lon="4.37661">
        <ele>756.37945556641</ele>
        <time>2020-06-20T07:51:43.808Z</time>
      </trkpt>
      <trkpt lat="45.38897" lon="4.37635">
        <ele>753.15887451172</ele>
        <time>2020-06-20T07:51:49.245Z</time>
      </trkpt>
      <trkpt lat="45.38916" lon="4.37564">
        <ele>748.97967529297</ele>
        <time>2020-06-20T07:51:54.690Z</time>
      </trkpt>
      <trkpt lat="45.38965" lon="4.37433">
        <ele>749.94805908203</ele>
        <time>2020-06-20T07:52:00.152Z</time>
      </trkpt>
      <trkpt lat="45.3898" lon="4.37373">
        <ele>749.49017333984</ele>
        <time>2020-06-20T07:52:05.621Z</time>
      </trkpt>
      <trkpt lat="45.3897" lon="4.37229">
        <ele>743.06335449219</ele>
        <time>2020-06-20T07:52:11.107Z</time>
      </trkpt>
      <trkpt lat="45.38978" lon="4.37124">
        <ele>737.03509521484</ele>
        <time>2020-06-20T07:52:16.605Z</time>
      </trkpt>
      <trkpt lat="45.38998" lon="4.37043">
        <ele>727.01806640625</ele>
        <time>2020-06-20T07:52:22.112Z</time>
      </trkpt>
      <trkpt lat="45.39116" lon="4.36866">
        <ele>713.76806640625</ele>
        <time>2020-06-20T07:52:27.647Z</time>
      </trkpt>
      <trkpt lat="45.39163" lon="4.36817">
        <ele>704.26397705078</ele>
        <time>2020-06-20T07:52:33.191Z</time>
      </trkpt>
      <trkpt lat="45.39198" lon="4.36767">
        <ele>701.36309814453</ele>
        <time>2020-06-20T07:52:38.743Z</time>
      </trkpt>
      <trkpt lat="45.39222" lon="4.36684">
        <ele>705.05786132812</ele>
        <time>2020-06-20T07:52:44.305Z</time>
      </trkpt>
      <trkpt lat="45.39226" lon="4.36642">
        <ele>705.52270507812</ele>
        <time>2020-06-20T07:52:49.872Z</time>
      </trkpt>
      <trkpt lat="45.39226" lon="4.36642">
        <ele>705.52130126953</ele>
        <time>2020-06-20T07:52:55.439Z</time>
      </trkpt>
      <trkpt lat="45.39209" lon="4.36487">
        <ele>707.64514160156</ele>
        <time>2020-06-20T07:53:01.024Z</time>
      </trkpt>
      <trkpt lat="45.39212" lon="4.3643">
        <ele>705.56622314453</ele>
        <time>2020-06-20T07:53:06.615Z</time>
      </trkpt>
      <trkpt lat="45.39236" lon="4.36252">
        <ele>690.59240722656</ele>
        <time>2020-06-20T07:53:12.227Z</time>
      </trkpt>
      <trkpt lat="45.39243" lon="4.36224">
        <ele>688.19812011719</ele>
        <time>2020-06-20T07:53:17.842Z</time>
      </trkpt>
      <trkpt lat="45.39257" lon="4.36206">
        <ele>686.04791259766</ele>
        <time>2020-06-20T07:53:23.460Z</time>
      </trkpt>
      <trkpt lat="45.39285" lon="4.36208">
        <ele>684.52947998047</ele>
        <time>2020-06-20T07:53:29.082Z</time>
      </trkpt>
      <trkpt lat="45.39299" lon="4.36222">
        <ele>684.6494140625</ele>
        <time>2020-06-20T07:53:34.707Z</time>
      </trkpt>
      <trkpt lat="45.39316" lon="4.36281">
        <ele>685.80798339844</ele>
        <time>2020-06-20T07:53:40.339Z</time>
      </trkpt>
      <trkpt lat="45.39354" lon="4.36348">
        <ele>678.19818115234</ele>
        <time>2020-06-20T07:53:45.981Z</time>
      </trkpt>
      <trkpt lat="45.39375" lon="4.36415">
        <ele>675.60034179688</ele>
        <time>2020-06-20T07:53:51.631Z</time>
      </trkpt>
      <trkpt lat="45.3938" lon="4.36625">
        <ele>672.73895263672</ele>
        <time>2020-06-20T07:53:57.305Z</time>
      </trkpt>
      <trkpt lat="45.3939" lon="4.36736">
        <ele>667.06805419922</ele>
        <time>2020-06-20T07:54:02.992Z</time>
      </trkpt>
      <trkpt lat="45.3939" lon="4.36736">
        <ele>667.06665039062</ele>
        <time>2020-06-20T07:54:08.679Z</time>
      </trkpt>
      <trkpt lat="45.39406" lon="4.36791">
        <ele>665.64300537109</ele>
        <time>2020-06-20T07:54:14.372Z</time>
      </trkpt>
      <trkpt lat="45.39425" lon="4.36814">
        <ele>664.0224609375</ele>
        <time>2020-06-20T07:54:20.069Z</time>
      </trkpt>
      <trkpt lat="45.39479" lon="4.36853">
        <ele>658.44854736328</ele>
        <time>2020-06-20T07:54:25.776Z</time>
      </trkpt>
      <trkpt lat="45.3948" lon="4.36853">
        <ele>658.44091796875</ele>
        <time>2020-06-20T07:54:31.483Z</time>
      </trkpt>
      <trkpt lat="45.39504" lon="4.36871">
        <ele>656.51538085938</ele>
        <time>2020-06-20T07:54:37.194Z</time>
      </trkpt>
      <trkpt lat="45.39616" lon="4.37014">
        <ele>648.06359863281</ele>
        <time>2020-06-20T07:54:42.930Z</time>
      </trkpt>
      <trkpt lat="45.39718" lon="4.37104">
        <ele>640.84722900391</ele>
        <time>2020-06-20T07:54:48.685Z</time>
      </trkpt>
      <trkpt lat="45.3974" lon="4.37137">
        <ele>638.42779541016</ele>
        <time>2020-06-20T07:54:54.445Z</time>
      </trkpt>
      <trkpt lat="45.39761" lon="4.37203">
        <ele>635.73266601562</ele>
        <time>2020-06-20T07:55:00.213Z</time>
      </trkpt>
      <trkpt lat="45.39781" lon="4.37203">
        <ele>632.06396484375</ele>
        <time>2020-06-20T07:55:05.984Z</time>
      </trkpt>
      <trkpt lat="45.39794" lon="4.37194">
        <ele>630.57562255859</ele>
        <time>2020-06-20T07:55:11.758Z</time>
      </trkpt>
      <trkpt lat="45.39799" lon="4.37179">
        <ele>629.68304443359</ele>
        <time>2020-06-20T07:55:17.534Z</time>
      </trkpt>
      <trkpt lat="45.39798" lon="4.37146">
        <ele>629.50720214844</ele>
        <time>2020-06-20T07:55:23.313Z</time>
      </trkpt>
      <trkpt lat="45.39777" lon="4.37085">
        <ele>630.64605712891</ele>
        <time>2020-06-20T07:55:29.100Z</time>
      </trkpt>
      <trkpt lat="45.39776" lon="4.37034">
        <ele>628.32781982422</ele>
        <time>2020-06-20T07:55:34.893Z</time>
      </trkpt>
      <trkpt lat="45.39783" lon="4.36995">
        <ele>625.84362792969</ele>
        <time>2020-06-20T07:55:40.690Z</time>
      </trkpt>
      <trkpt lat="45.39805" lon="4.36996">
        <ele>622.79217529297</ele>
        <time>2020-06-20T07:55:46.491Z</time>
      </trkpt>
      <trkpt lat="45.3983" lon="4.3698">
        <ele>617.37286376953</ele>
        <time>2020-06-20T07:55:52.296Z</time>
      </trkpt>
      <trkpt lat="45.39845" lon="4.36916">
        <ele>613.83752441406</ele>
        <time>2020-06-20T07:55:58.109Z</time>
      </trkpt>
      <trkpt lat="45.39888" lon="4.36929">
        <ele>608.30364990234</ele>
        <time>2020-06-20T07:56:03.929Z</time>
      </trkpt>
      <trkpt lat="45.39892" lon="4.36975">
        <ele>607.25726318359</ele>
        <time>2020-06-20T07:56:09.754Z</time>
      </trkpt>
      <trkpt lat="45.39902" lon="4.36976">
        <ele>605.26379394531</ele>
        <time>2020-06-20T07:56:15.581Z</time>
      </trkpt>
      <trkpt lat="45.40023" lon="4.36885">
        <ele>589.36987304688</ele>
        <time>2020-06-20T07:56:21.429Z</time>
      </trkpt>
      <trkpt lat="45.40037" lon="4.36873">
        <ele>587.52911376953</ele>
        <time>2020-06-20T07:56:27.280Z</time>
      </trkpt>
      <trkpt lat="45.4004" lon="4.36873">
        <ele>587.10430908203</ele>
        <time>2020-06-20T07:56:33.132Z</time>
      </trkpt>
      <trkpt lat="45.40059" lon="4.3686">
        <ele>584.50140380859</ele>
        <time>2020-06-20T07:56:38.987Z</time>
      </trkpt>
      <trkpt lat="45.40112" lon="4.36823">
        <ele>577.37939453125</ele>
        <time>2020-06-20T07:56:44.851Z</time>
      </trkpt>
      <trkpt lat="45.40132" lon="4.3679">
        <ele>575</ele>
        <time>2020-06-20T07:56:50.720Z</time>
      </trkpt>
      <trkpt lat="45.40152" lon="4.36814">
        <ele>575</ele>
        <time>2020-06-20T07:56:56.593Z</time>
      </trkpt>
      <trkpt lat="45.4017" lon="4.36821">
        <ele>575</ele>
        <time>2020-06-20T07:57:02.469Z</time>
      </trkpt>
      <trkpt lat="45.40228" lon="4.36619">
        <ele>570.38726806641</ele>
        <time>2020-06-20T07:57:08.370Z</time>
      </trkpt>
      <trkpt lat="45.40278" lon="4.3653">
        <ele>567.66125488281</ele>
        <time>2020-06-20T07:57:14.284Z</time>
      </trkpt>
      <trkpt lat="45.40278" lon="4.3653">
        <ele>567.66052246094</ele>
        <time>2020-06-20T07:57:20.198Z</time>
      </trkpt>
      <trkpt lat="45.40292" lon="4.36512">
        <ele>566.22674560547</ele>
        <time>2020-06-20T07:57:26.115Z</time>
      </trkpt>
      <trkpt lat="45.40304" lon="4.36499">
        <ele>565.42199707031</ele>
        <time>2020-06-20T07:57:32.034Z</time>
      </trkpt>
      <trkpt lat="45.40304" lon="4.36499">
        <ele>565.42169189453</ele>
        <time>2020-06-20T07:57:37.953Z</time>
      </trkpt>
      <trkpt lat="45.40334" lon="4.36481">
        <ele>564.02209472656</ele>
        <time>2020-06-20T07:57:43.878Z</time>
      </trkpt>
      <trkpt lat="45.40358" lon="4.36562">
        <ele>565.33972167969</ele>
        <time>2020-06-20T07:57:49.812Z</time>
      </trkpt>
      <trkpt lat="45.40358" lon="4.36562">
        <ele>565.33941650391</ele>
        <time>2020-06-20T07:57:55.746Z</time>
      </trkpt>
      <trkpt lat="45.40372" lon="4.36609">
        <ele>566.87719726562</ele>
        <time>2020-06-20T07:58:01.686Z</time>
      </trkpt>
      <trkpt lat="45.40403" lon="4.3671">
        <ele>569.42877197266</ele>
        <time>2020-06-20T07:58:07.639Z</time>
      </trkpt>
      <trkpt lat="45.40406" lon="4.36719">
        <ele>569.62188720703</ele>
        <time>2020-06-20T07:58:13.593Z</time>
      </trkpt>
      <trkpt lat="45.40417" lon="4.36748">
        <ele>570.33880615234</ele>
        <time>2020-06-20T07:58:19.550Z</time>
      </trkpt>
      <trkpt lat="45.40437" lon="4.36807">
        <ele>571.94787597656</ele>
        <time>2020-06-20T07:58:25.515Z</time>
      </trkpt>
      <trkpt lat="45.40481" lon="4.36916">
        <ele>575.16912841797</ele>
        <time>2020-06-20T07:58:31.494Z</time>
      </trkpt>
      <trkpt lat="45.40499" lon="4.36984">
        <ele>577.07421875</ele>
        <time>2020-06-20T07:58:37.481Z</time>
      </trkpt>
      <trkpt lat="45.40506" lon="4.3708">
        <ele>579.20843505859</ele>
        <time>2020-06-20T07:58:43.479Z</time>
      </trkpt>
      <trkpt lat="45.40506" lon="4.3708">
        <ele>579.20751953125</ele>
        <time>2020-06-20T07:58:49.477Z</time>
      </trkpt>
      <trkpt lat="45.40507" lon="4.37086">
        <ele>579.16888427734</ele>
        <time>2020-06-20T07:58:55.476Z</time>
      </trkpt>
      <trkpt lat="45.40508" lon="4.37151">
        <ele>581.12921142578</ele>
        <time>2020-06-20T07:59:01.482Z</time>
      </trkpt>
      <trkpt lat="45.40497" lon="4.37166">
        <ele>582.77734375</ele>
        <time>2020-06-20T07:59:07.491Z</time>
      </trkpt>
      <trkpt lat="45.40506" lon="4.37183">
        <ele>582.57061767578</ele>
        <time>2020-06-20T07:59:13.502Z</time>
      </trkpt>
      <trkpt lat="45.40519" lon="4.37174">
        <ele>581.02667236328</ele>
        <time>2020-06-20T07:59:19.515Z</time>
      </trkpt>
      <trkpt lat="45.40531" lon="4.37183">
        <ele>580.09985351562</ele>
        <time>2020-06-20T07:59:25.530Z</time>
      </trkpt>
      <trkpt lat="45.40573" lon="4.37281">
        <ele>577.91131591797</ele>
        <time>2020-06-20T07:59:31.558Z</time>
      </trkpt>
      <trkpt lat="45.40619" lon="4.3734">
        <ele>575.44458007812</ele>
        <time>2020-06-20T07:59:37.596Z</time>
      </trkpt>
      <trkpt lat="45.40657" lon="4.37362">
        <ele>574.03656005859</ele>
        <time>2020-06-20T07:59:43.641Z</time>
      </trkpt>
      <trkpt lat="45.40701" lon="4.37374">
        <ele>572.51257324219</ele>
        <time>2020-06-20T07:59:49.693Z</time>
      </trkpt>
      <trkpt lat="45.40727" lon="4.37373">
        <ele>572.53369140625</ele>
        <time>2020-06-20T07:59:55.749Z</time>
      </trkpt>
      <trkpt lat="45.40727" lon="4.37373">
        <ele>572.53356933594</ele>
        <time>2020-06-20T08:00:01.805Z</time>
      </trkpt>
      <trkpt lat="45.40899" lon="4.37347">
        <ele>576.42297363281</ele>
        <time>2020-06-20T08:00:07.889Z</time>
      </trkpt>
      <trkpt lat="45.4092" lon="4.37335">
        <ele>577.42700195312</ele>
        <time>2020-06-20T08:00:13.976Z</time>
      </trkpt>
      <trkpt lat="45.40929" lon="4.37342">
        <ele>578.62414550781</ele>
        <time>2020-06-20T08:00:20.065Z</time>
      </trkpt>
      <trkpt lat="45.40936" lon="4.37336">
        <ele>578.84295654297</ele>
        <time>2020-06-20T08:00:26.155Z</time>
      </trkpt>
      <trkpt lat="45.41168" lon="4.37307">
        <ele>588.10876464844</ele>
        <time>2020-06-20T08:00:32.283Z</time>
      </trkpt>
      <trkpt lat="45.41229" lon="4.37284">
        <ele>592.42028808594</ele>
        <time>2020-06-20T08:00:38.421Z</time>
      </trkpt>
      <trkpt lat="45.41257" lon="4.37279">
        <ele>594.80859375</ele>
        <time>2020-06-20T08:00:44.563Z</time>
      </trkpt>
      <trkpt lat="45.41265" lon="4.3729">
        <ele>596.23052978516</ele>
        <time>2020-06-20T08:00:50.707Z</time>
      </trkpt>
      <trkpt lat="45.41286" lon="4.37283">
        <ele>597.82672119141</ele>
        <time>2020-06-20T08:00:56.854Z</time>
      </trkpt>
      <trkpt lat="45.41309" lon="4.37276">
        <ele>599.73217773438</ele>
        <time>2020-06-20T08:01:03.005Z</time>
      </trkpt>
      <trkpt lat="45.41325" lon="4.37279">
        <ele>601.7412109375</ele>
        <time>2020-06-20T08:01:09.159Z</time>
      </trkpt>
      <trkpt lat="45.41327" lon="4.37279">
        <ele>601.97290039062</ele>
        <time>2020-06-20T08:01:15.313Z</time>
      </trkpt>
      <trkpt lat="45.41364" lon="4.37281">
        <ele>606.00201416016</ele>
        <time>2020-06-20T08:01:21.473Z</time>
      </trkpt>
      <trkpt lat="45.4139" lon="4.37283">
        <ele>608.98547363281</ele>
        <time>2020-06-20T08:01:27.637Z</time>
      </trkpt>
      <trkpt lat="45.41397" lon="4.37285">
        <ele>609.96374511719</ele>
        <time>2020-06-20T08:01:33.802Z</time>
      </trkpt>
      <trkpt lat="45.41409" lon="4.37289">
        <ele>611.5341796875</ele>
        <time>2020-06-20T08:01:39.969Z</time>
      </trkpt>
      <trkpt lat="45.41414" lon="4.37291">
        <ele>612.25402832031</ele>
        <time>2020-06-20T08:01:46.137Z</time>
      </trkpt>
      <trkpt lat="45.41443" lon="4.37311">
        <ele>616.42474365234</ele>
        <time>2020-06-20T08:01:52.310Z</time>
      </trkpt>
      <trkpt lat="45.41459" lon="4.3734">
        <ele>619.39825439453</ele>
        <time>2020-06-20T08:01:58.487Z</time>
      </trkpt>
      <trkpt lat="45.41462" lon="4.37353">
        <ele>620.15875244141</ele>
        <time>2020-06-20T08:02:04.666Z</time>
      </trkpt>
      <trkpt lat="45.41469" lon="4.37362">
        <ele>621.18487548828</ele>
        <time>2020-06-20T08:02:10.847Z</time>
      </trkpt>
      <trkpt lat="45.41487" lon="4.37388">
        <ele>622.63104248047</ele>
        <time>2020-06-20T08:02:17.032Z</time>
      </trkpt>
      <trkpt lat="45.415" lon="4.37431">
        <ele>624.63909912109</ele>
        <time>2020-06-20T08:02:23.222Z</time>
      </trkpt>
      <trkpt lat="45.41497" lon="4.37444">
        <ele>624.98699951172</ele>
        <time>2020-06-20T08:02:29.414Z</time>
      </trkpt>
      <trkpt lat="45.41461" lon="4.37488">
        <ele>623.96185302734</ele>
        <time>2020-06-20T08:02:35.613Z</time>
      </trkpt>
      <trkpt lat="45.41464" lon="4.37504">
        <ele>624.50158691406</ele>
        <time>2020-06-20T08:02:41.814Z</time>
      </trkpt>
      <trkpt lat="45.41474" lon="4.37513">
        <ele>624.78521728516</ele>
        <time>2020-06-20T08:02:48.017Z</time>
      </trkpt>
      <trkpt lat="45.41514" lon="4.37499">
        <ele>624.61785888672</ele>
        <time>2020-06-20T08:02:54.227Z</time>
      </trkpt>
      <trkpt lat="45.41573" lon="4.37514">
        <ele>626.28723144531</ele>
        <time>2020-06-20T08:03:00.446Z</time>
      </trkpt>
      <trkpt lat="45.41708" lon="4.37555">
        <ele>626.09869384766</ele>
        <time>2020-06-20T08:03:06.687Z</time>
      </trkpt>
      <trkpt lat="45.41708" lon="4.37555">
        <ele>626.09887695312</ele>
        <time>2020-06-20T08:03:12.928Z</time>
      </trkpt>
      <trkpt lat="45.41881" lon="4.37585">
        <ele>626.14862060547</ele>
        <time>2020-06-20T08:03:19.197Z</time>
      </trkpt>
      <trkpt lat="45.41943" lon="4.3759">
        <ele>624.345703125</ele>
        <time>2020-06-20T08:03:25.476Z</time>
      </trkpt>
      <trkpt lat="45.42087" lon="4.37528">
        <ele>628.82647705078</ele>
        <time>2020-06-20T08:03:31.779Z</time>
      </trkpt>
      <trkpt lat="45.42166" lon="4.37515">
        <ele>628.36840820312</ele>
        <time>2020-06-20T08:03:38.095Z</time>
      </trkpt>
      <trkpt lat="45.4238" lon="4.37513">
        <ele>621.83227539062</ele>
        <time>2020-06-20T08:03:44.445Z</time>
      </trkpt>
      <trkpt lat="45.42399" lon="4.37515">
        <ele>621.26873779297</ele>
        <time>2020-06-20T08:03:50.798Z</time>
      </trkpt>
      <trkpt lat="45.42413" lon="4.37521">
        <ele>620.49639892578</ele>
        <time>2020-06-20T08:03:57.154Z</time>
      </trkpt>
      <trkpt lat="45.42504" lon="4.3757">
        <ele>618.06365966797</ele>
        <time>2020-06-20T08:04:03.525Z</time>
      </trkpt>
      <trkpt lat="45.42561" lon="4.37565">
        <ele>613.71557617188</ele>
        <time>2020-06-20T08:04:09.905Z</time>
      </trkpt>
      <trkpt lat="45.42561" lon="4.37565">
        <ele>613.71539306641</ele>
        <time>2020-06-20T08:04:16.285Z</time>
      </trkpt>
      <trkpt lat="45.42654" lon="4.37554">
        <ele>606.15692138672</ele>
        <time>2020-06-20T08:04:22.680Z</time>
      </trkpt>
      <trkpt lat="45.42654" lon="4.37554">
        <ele>606.15600585938</ele>
        <time>2020-06-20T08:04:29.075Z</time>
      </trkpt>
      <trkpt lat="45.42725" lon="4.37551">
        <ele>596.63806152344</ele>
        <time>2020-06-20T08:04:35.482Z</time>
      </trkpt>
      <trkpt lat="45.42891" lon="4.37607">
        <ele>586.998046875</ele>
        <time>2020-06-20T08:04:41.916Z</time>
      </trkpt>
      <trkpt lat="45.429" lon="4.3761">
        <ele>585.45489501953</ele>
        <time>2020-06-20T08:04:48.351Z</time>
      </trkpt>
      <trkpt lat="45.429" lon="4.3761">
        <ele>585.45336914062</ele>
        <time>2020-06-20T08:04:54.786Z</time>
      </trkpt>
      <trkpt lat="45.43135" lon="4.37693">
        <ele>560.47485351562</ele>
        <time>2020-06-20T08:05:01.260Z</time>
      </trkpt>
      <trkpt lat="45.43146" lon="4.37697">
        <ele>559.47076416016</ele>
        <time>2020-06-20T08:05:07.736Z</time>
      </trkpt>
      <trkpt lat="45.4315" lon="4.37716">
        <ele>559.48565673828</ele>
        <time>2020-06-20T08:05:14.214Z</time>
      </trkpt>
      <trkpt lat="45.43086" lon="4.37809">
        <ele>569.21685791016</ele>
        <time>2020-06-20T08:05:20.707Z</time>
      </trkpt>
      <trkpt lat="45.43117" lon="4.37849">
        <ele>565.00653076172</ele>
        <time>2020-06-20T08:05:27.207Z</time>
      </trkpt>
      <trkpt lat="45.43218" lon="4.37981">
        <ele>554.8603515625</ele>
        <time>2020-06-20T08:05:33.729Z</time>
      </trkpt>
      <trkpt lat="45.43261" lon="4.38037">
        <ele>552.21893310547</ele>
        <time>2020-06-20T08:05:40.260Z</time>
      </trkpt>
      <trkpt lat="45.43261" lon="4.38037">
        <ele>552.21942138672</ele>
        <time>2020-06-20T08:05:46.791Z</time>
      </trkpt>
      <trkpt lat="45.43307" lon="4.38005">
        <ele>550.44573974609</ele>
        <time>2020-06-20T08:05:53.330Z</time>
      </trkpt>
      <trkpt lat="45.43353" lon="4.37971">
        <ele>548.296875</ele>
        <time>2020-06-20T08:05:59.877Z</time>
      </trkpt>
      <trkpt lat="45.43365" lon="4.37962">
        <ele>546.95745849609</ele>
        <time>2020-06-20T08:06:06.427Z</time>
      </trkpt>
      <trkpt lat="45.43385" lon="4.37955">
        <ele>545.05035400391</ele>
        <time>2020-06-20T08:06:12.980Z</time>
      </trkpt>
      <trkpt lat="45.43436" lon="4.37964">
        <ele>539.03216552734</ele>
        <time>2020-06-20T08:06:19.541Z</time>
      </trkpt>
      <trkpt lat="45.43436" lon="4.37964">
        <ele>539.03338623047</ele>
        <time>2020-06-20T08:06:26.102Z</time>
      </trkpt>
      <trkpt lat="45.43517" lon="4.37983">
        <ele>535.96331787109</ele>
        <time>2020-06-20T08:06:32.676Z</time>
      </trkpt>
      <trkpt lat="45.43545" lon="4.3798">
        <ele>535.69299316406</ele>
        <time>2020-06-20T08:06:39.255Z</time>
      </trkpt>
      <trkpt lat="45.43545" lon="4.3798">
        <ele>535.69299316406</ele>
        <time>2020-06-20T08:06:45.834Z</time>
      </trkpt>
      <trkpt lat="45.43603" lon="4.37945">
        <ele>531.62158203125</ele>
        <time>2020-06-20T08:06:52.423Z</time>
      </trkpt>
      <trkpt lat="45.43628" lon="4.37931">
        <ele>530.69494628906</ele>
        <time>2020-06-20T08:06:59.016Z</time>
      </trkpt>
      <trkpt lat="45.43717" lon="4.37891">
        <ele>528.32989501953</ele>
        <time>2020-06-20T08:07:05.624Z</time>
      </trkpt>
      <trkpt lat="45.43722" lon="4.37885">
        <ele>528.31707763672</ele>
        <time>2020-06-20T08:07:12.233Z</time>
      </trkpt>
      <trkpt lat="45.43782" lon="4.37871">
        <ele>528.14343261719</ele>
        <time>2020-06-20T08:07:18.852Z</time>
      </trkpt>
      <trkpt lat="45.43913" lon="4.37868">
        <ele>528.30743408203</ele>
        <time>2020-06-20T08:07:25.492Z</time>
      </trkpt>
      <trkpt lat="45.43913" lon="4.37868">
        <ele>528.3076171875</ele>
        <time>2020-06-20T08:07:32.132Z</time>
      </trkpt>
      <trkpt lat="45.43936" lon="4.37871">
        <ele>527.79254150391</ele>
        <time>2020-06-20T08:07:38.775Z</time>
      </trkpt>
      <trkpt lat="45.43947" lon="4.37863">
        <ele>527.45617675781</ele>
        <time>2020-06-20T08:07:45.421Z</time>
      </trkpt>
      <trkpt lat="45.44017" lon="4.37944">
        <ele>524.85748291016</ele>
        <time>2020-06-20T08:07:52.081Z</time>
      </trkpt>
      <trkpt lat="45.44144" lon="4.38084">
        <ele>521.81921386719</ele>
        <time>2020-06-20T08:07:58.767Z</time>
      </trkpt>
      <trkpt lat="45.44144" lon="4.38084">
        <ele>521.81964111328</ele>
        <time>2020-06-20T08:08:05.453Z</time>
      </trkpt>
      <trkpt lat="45.44131" lon="4.38179">
        <ele>522.01763916016</ele>
        <time>2020-06-20T08:08:12.149Z</time>
      </trkpt>
      <trkpt lat="45.44131" lon="4.38188">
        <ele>522.01770019531</ele>
        <time>2020-06-20T08:08:18.847Z</time>
      </trkpt>
      <trkpt lat="45.44135" lon="4.38221">
        <ele>521.47174072266</ele>
        <time>2020-06-20T08:08:25.548Z</time>
      </trkpt>
      <trkpt lat="45.44014" lon="4.38256">
        <ele>525.53436279297</ele>
        <time>2020-06-20T08:08:32.269Z</time>
      </trkpt>
      <trkpt lat="45.44014" lon="4.38256">
        <ele>525.53454589844</ele>
        <time>2020-06-20T08:08:38.990Z</time>
      </trkpt>
      <trkpt lat="45.43992" lon="4.38262">
        <ele>526.13293457031</ele>
        <time>2020-06-20T08:08:45.715Z</time>
      </trkpt>
    </trkseg>
  </trk>
</gpx>